PWSweather.com
Personal Weather Stations
Station Observations
WHAKATANE1
Whakatane, WhakataneNZ

WhakataneWhakataneNZ

Lat: -37.960954, Lon: 176.9768

Elevation: 10

Station Type: Lacrosse

Latest ConditionsUpdated 6:49:00 AM GMT+12:12 Wednesday, Sep 3, 2014
Currently Today's Max Today's Min Today's Average
Temperature 43.9°F6.6°C 49.5°F9.7°C 43.9°F6.6°C 47.6°F8.7°C
Dew Point 43.6°F6.4°C 48.2°F9.0°C 43.6°F6.4°C 47.0°F8.3°C
Winds 0.7 mph NW1.1 kmh NW 7.3 mph NW11.7 kmh NW - 3.9 mph 6.3 kmh
Wind Gusts 1.6 mph2.6 kmh 10.7 mph17.2 kmh - -
Humidity 99% 99% 92% 98%
Pressure 29.36 in994.2 mb 29.36 in994.2 mb 29.31 in992.6 mb -
Hour Temp Dew Point Humidity Winds Wind Gusts Pressure Precip Precip Rate Daily Precip Total
06:49 AM 43.9°F6.6°C 43.6°F6.4°C 99% 0.7 mph NW1.1 kmh NW 1.6 mph2.6 kmh 29.36 in994.2 mb 0.00 in0.0 mm 0.00 in/hr0.0 mm/hr 0.00 in0.0 mm
06:48 AM 43.9°F6.6°C 43.6°F6.4°C 99% 0.6 mph NW1.0 kmh NW 1.6 mph2.6 kmh 29.36 in994.2 mb 0.00 in0.0 mm 0.00 in/hr0.0 mm/hr 0.00 in0.0 mm
06:47 AM 44.1°F6.7°C 43.8°F6.6°C 99% 0.5 mph NW0.8 kmh NW 1.6 mph2.6 kmh 29.36 in994.2 mb 0.00 in0.0 mm 0.00 in/hr0.0 mm/hr 0.00 in0.0 mm
06:46 AM 44.1°F6.7°C 43.8°F6.6°C 99% 0.5 mph NW0.8 kmh NW 1.6 mph2.6 kmh 29.36 in994.2 mb 0.00 in0.0 mm 0.00 in/hr0.0 mm/hr 0.00 in0.0 mm
06:45 AM 44.1°F6.7°C 43.8°F6.6°C 99% 0.5 mph NW0.8 kmh NW 0.7 mph1.1 kmh 29.36 in994.2 mb 0.00 in0.0 mm 0.00 in/hr0.0 mm/hr 0.00 in0.0 mm
06:44 AM 44.1°F6.7°C 43.8°F6.6°C 99% 0.6 mph NW1.0 kmh NW 1.6 mph2.6 kmh 29.36 in994.2 mb 0.00 in0.0 mm 0.00 in/hr0.0 mm/hr 0.00 in0.0 mm
06:43 AM 44.1°F6.7°C 43.8°F6.6°C 99% 0.6 mph NW1.0 kmh NW 1.6 mph2.6 kmh 29.36 in994.2 mb 0.00 in0.0 mm 0.00 in/hr0.0 mm/hr 0.00 in0.0 mm
06:42 AM 44.2°F6.8°C 44.0°F6.7°C 99% 0.7 mph WNW1.1 kmh WNW 1.6 mph2.6 kmh 29.36 in994.2 mb 0.00 in0.0 mm 0.00 in/hr0.0 mm/hr 0.00 in0.0 mm
06:41 AM 44.2°F6.8°C 44.0°F6.7°C 99% 0.8 mph WNW1.3 kmh WNW 1.6 mph2.6 kmh 29.36 in994.2 mb 0.00 in0.0 mm 0.00 in/hr0.0 mm/hr 0.00 in0.0 mm
06:40 AM 44.2°F6.8°C 44.0°F6.7°C 99% 0.8 mph WNW1.3 kmh WNW 1.6 mph2.6 kmh 29.36 in994.2 mb 0.00 in0.0 mm 0.00 in/hr0.0 mm/hr 0.00 in0.0 mm
06:39 AM 44.4°F6.9°C 44.2°F6.8°C 99% 0.8 mph WNW1.3 kmh WNW 1.6 mph2.6 kmh 29.36 in994.2 mb 0.00 in0.0 mm 0.00 in/hr0.0 mm/hr 0.00 in0.0 mm
06:38 AM 44.4°F6.9°C 44.2°F6.8°C 99% 0.8 mph WNW1.3 kmh WNW 1.6 mph2.6 kmh 29.36 in994.2 mb 0.00 in0.0 mm 0.00 in/hr0.0 mm/hr 0.00 in0.0 mm
06:37 AM 44.4°F6.9°C 44.2°F6.8°C 99% 0.7 mph WNW1.1 kmh WNW 1.6 mph2.6 kmh 29.36 in994.2 mb 0.00 in0.0 mm 0.00 in/hr0.0 mm/hr 0.00 in0.0 mm
06:36 AM 44.4°F6.9°C 44.2°F6.8°C 99% 0.6 mph W1.0 kmh W 1.6 mph2.6 kmh 29.36 in994.2 mb 0.00 in0.0 mm 0.00 in/hr0.0 mm/hr 0.00 in0.0 mm
06:35 AM 44.6°F7.0°C 44.3°F6.8°C 99% 0.6 mph W1.0 kmh W 1.6 mph2.6 kmh 29.36 in994.2 mb 0.00 in0.0 mm 0.00 in/hr0.0 mm/hr 0.00 in0.0 mm
06:34 AM 44.6°F7.0°C 44.3°F6.8°C 99% 0.4 mph W0.6 kmh W 1.6 mph2.6 kmh 29.36 in994.2 mb 0.00 in0.0 mm 0.00 in/hr0.0 mm/hr 0.00 in0.0 mm
06:33 AM 44.8°F7.1°C 44.5°F6.9°C 99% 0.3 mph W0.5 kmh W 1.6 mph2.6 kmh 29.36 in994.2 mb 0.00 in0.0 mm 0.00 in/hr0.0 mm/hr 0.00 in0.0 mm
06:32 AM 44.8°F7.1°C 44.5°F6.9°C 99% 0.1 mph W0.2 kmh W 1.6 mph2.6 kmh 29.35 in993.9 mb 0.00 in0.0 mm 0.00 in/hr0.0 mm/hr 0.00 in0.0 mm
06:31 AM 45.0°F7.2°C 44.7°F7.1°C 99% Calm Calm -- 29.35 in993.9 mb 0.00 in0.0 mm 0.00 in/hr0.0 mm/hr 0.00 in0.0 mm
06:30 AM 45.0°F7.2°C 44.7°F7.1°C 99% Calm Calm -- 29.36 in994.2 mb 0.00 in0.0 mm 0.00 in/hr0.0 mm/hr 0.00 in0.0 mm
06:29 AM 45.0°F7.2°C 44.7°F7.1°C 99% 0.1 mph W0.2 kmh W 0.7 mph1.1 kmh 29.35 in993.9 mb 0.00 in0.0 mm 0.00 in/hr0.0 mm/hr 0.00 in0.0 mm
06:28 AM 45.1°F7.3°C 44.9°F7.2°C 99% 0.1 mph W0.2 kmh W 0.7 mph1.1 kmh 29.36 in994.2 mb 0.00 in0.0 mm 0.00 in/hr0.0 mm/hr 0.00 in0.0 mm
06:27 AM 45.3°F7.4°C 45.1°F7.3°C 99% 0.2 mph W0.3 kmh W 1.6 mph2.6 kmh 29.35 in993.9 mb 0.00 in0.0 mm 0.00 in/hr0.0 mm/hr 0.00 in0.0 mm
06:26 AM 45.3°F7.4°C 45.1°F7.3°C 99% 0.4 mph W0.6 kmh W 1.6 mph2.6 kmh 29.35 in993.9 mb 0.00 in0.0 mm 0.00 in/hr0.0 mm/hr 0.00 in0.0 mm
06:25 AM 45.3°F7.4°C 45.1°F7.3°C 99% 0.6 mph W1.0 kmh W 2.2 mph3.5 kmh 29.35 in993.9 mb 0.00 in0.0 mm 0.00 in/hr0.0 mm/hr 0.00 in0.0 mm
06:24 AM 45.3°F7.4°C 45.1°F7.3°C 99% 0.8 mph W1.3 kmh W 2.2 mph3.5 kmh 29.35 in993.9 mb 0.00 in0.0 mm 0.00 in/hr0.0 mm/hr 0.00 in0.0 mm
06:23 AM 45.5°F7.5°C 45.2°F7.3°C 99% 1.0 mph W1.6 kmh W 2.2 mph3.5 kmh 29.35 in993.9 mb 0.00 in0.0 mm 0.00 in/hr0.0 mm/hr 0.00 in0.0 mm
06:22 AM 45.5°F7.5°C 45.2°F7.3°C 99% 1.2 mph W1.9 kmh W 2.2 mph3.5 kmh 29.35 in993.9 mb 0.00 in0.0 mm 0.00 in/hr0.0 mm/hr 0.00 in0.0 mm
06:21 AM 45.5°F7.5°C 45.2°F7.3°C 99% 1.5 mph W2.4 kmh W 3.1 mph5.0 kmh 29.35 in993.9 mb 0.00 in0.0 mm 0.00 in/hr0.0 mm/hr 0.00 in0.0 mm
06:20 AM 45.7°F7.6°C 45.4°F7.4°C 99% 1.7 mph W2.7 kmh W 3.1 mph5.0 kmh 29.35 in993.9 mb 0.00 in0.0 mm 0.00 in/hr0.0 mm/hr 0.00 in0.0 mm
06:19 AM 45.7°F7.6°C 45.4°F7.4°C 99% 1.8 mph W2.9 kmh W 3.1 mph5.0 kmh 29.35 in993.9 mb 0.00 in0.0 mm 0.00 in/hr0.0 mm/hr 0.00 in0.0 mm
06:18 AM 45.7°F7.6°C 45.4°F7.4°C 99% 1.7 mph W2.7 kmh W 3.1 mph5.0 kmh 29.35 in993.9 mb 0.00 in0.0 mm 0.00 in/hr0.0 mm/hr 0.00 in0.0 mm
06:17 AM 45.7°F7.6°C 45.4°F7.4°C 99% 1.8 mph W2.9 kmh W 3.1 mph5.0 kmh 29.35 in993.9 mb 0.00 in0.0 mm 0.00 in/hr0.0 mm/hr 0.00 in0.0 mm
06:16 AM 45.7°F7.6°C 45.4°F7.4°C 99% 1.8 mph W2.9 kmh W 3.1 mph5.0 kmh 29.34 in993.6 mb 0.00 in0.0 mm 0.00 in/hr0.0 mm/hr 0.00 in0.0 mm
06:15 AM 45.9°F7.7°C 45.6°F7.6°C 99% 1.8 mph W2.9 kmh W 3.1 mph5.0 kmh 29.35 in993.9 mb 0.00 in0.0 mm 0.00 in/hr0.0 mm/hr 0.00 in0.0 mm
06:14 AM 45.9°F7.7°C 45.6°F7.6°C 99% 1.8 mph WNW2.9 kmh WNW 3.1 mph5.0 kmh 29.35 in993.9 mb 0.00 in0.0 mm 0.00 in/hr0.0 mm/hr 0.00 in0.0 mm
06:13 AM 45.9°F7.7°C 45.6°F7.6°C 99% 2.0 mph NW3.2 kmh NW 4.5 mph7.2 kmh 29.35 in993.9 mb 0.00 in0.0 mm 0.00 in/hr0.0 mm/hr 0.00 in0.0 mm
06:12 AM 45.9°F7.7°C 45.6°F7.6°C 99% 2.2 mph NW3.5 kmh NW 4.5 mph7.2 kmh 29.35 in993.9 mb 0.00 in0.0 mm 0.00 in/hr0.0 mm/hr 0.00 in0.0 mm
06:11 AM 46.0°F7.8°C 45.8°F7.7°C 99% 2.3 mph NW3.7 kmh NW 4.5 mph7.2 kmh 29.34 in993.6 mb 0.00 in0.0 mm 0.00 in/hr0.0 mm/hr 0.00 in0.0 mm
06:10 AM 46.0°F7.8°C 45.8°F7.7°C 99% 2.3 mph NW3.7 kmh NW 4.5 mph7.2 kmh 29.35 in993.9 mb 0.00 in0.0 mm 0.00 in/hr0.0 mm/hr 0.00 in0.0 mm
06:09 AM 46.0°F7.8°C 45.8°F7.7°C 99% 2.4 mph NW3.9 kmh NW 4.5 mph7.2 kmh 29.35 in993.9 mb 0.00 in0.0 mm 0.00 in/hr0.0 mm/hr 0.00 in0.0 mm
06:08 AM 46.0°F7.8°C 45.8°F7.7°C 99% 2.7 mph NW4.3 kmh NW 4.5 mph7.2 kmh 29.35 in993.9 mb 0.00 in0.0 mm 0.00 in/hr0.0 mm/hr 0.00 in0.0 mm
06:07 AM 46.0°F7.8°C 45.8°F7.7°C 99% 2.7 mph NW4.3 kmh NW 4.5 mph7.2 kmh 29.35 in993.9 mb 0.00 in0.0 mm 0.00 in/hr0.0 mm/hr 0.00 in0.0 mm
06:06 AM 46.2°F7.9°C 46.0°F7.8°C 99% 2.6 mph NW4.2 kmh NW 4.5 mph7.2 kmh 29.34 in993.6 mb 0.00 in0.0 mm 0.00 in/hr0.0 mm/hr 0.00 in0.0 mm
06:05 AM 46.0°F7.8°C 45.8°F7.7°C 99% 2.6 mph NW4.2 kmh NW 4.5 mph7.2 kmh 29.34 in993.6 mb 0.00 in0.0 mm 0.00 in/hr0.0 mm/hr 0.00 in0.0 mm
06:04 AM 46.2°F7.9°C 46.0°F7.8°C 99% 2.6 mph NW4.2 kmh NW 4.5 mph7.2 kmh 29.34 in993.6 mb 0.00 in0.0 mm 0.00 in/hr0.0 mm/hr 0.00 in0.0 mm
06:03 AM 46.2°F7.9°C 46.0°F7.8°C 99% 2.6 mph NW4.2 kmh NW 4.5 mph7.2 kmh 29.34 in993.6 mb 0.00 in0.0 mm 0.00 in/hr0.0 mm/hr 0.00 in0.0 mm
06:02 AM 46.2°F7.9°C 46.0°F7.8°C 99% 2.6 mph NW4.2 kmh NW 4.5 mph7.2 kmh 29.34 in993.6 mb 0.00 in0.0 mm 0.00 in/hr0.0 mm/hr 0.00 in0.0 mm
06:01 AM 46.2°F7.9°C 46.0°F7.8°C 99% 2.7 mph NW4.3 kmh NW 5.4 mph8.7 kmh 29.34 in993.6 mb 0.00 in0.0 mm 0.00 in/hr0.0 mm/hr 0.00 in0.0 mm
06:00 AM 46.4°F8.0°C 46.1°F7.8°C 99% 2.8 mph NW4.5 kmh NW 5.4 mph8.7 kmh 29.34 in993.6 mb 0.00 in0.0 mm 0.00 in/hr0.0 mm/hr 0.00 in0.0 mm
05:59 AM 46.4°F8.0°C 46.1°F7.8°C 99% 3.0 mph NW4.8 kmh NW 5.4 mph8.7 kmh 29.34 in993.6 mb 0.00 in0.0 mm 0.00 in/hr0.0 mm/hr 0.00 in0.0 mm
05:58 AM 46.4°F8.0°C 46.1°F7.8°C 99% 3.2 mph NNW5.1 kmh NNW 5.4 mph8.7 kmh 29.34 in993.6 mb 0.00 in0.0 mm 0.00 in/hr0.0 mm/hr 0.00 in0.0 mm
05:57 AM 46.4°F8.0°C 46.1°F7.8°C 99% 3.3 mph NNW5.3 kmh NNW 5.4 mph8.7 kmh 29.34 in993.6 mb 0.00 in0.0 mm 0.00 in/hr0.0 mm/hr 0.00 in0.0 mm
05:56 AM 46.4°F8.0°C 46.1°F7.8°C 99% 3.4 mph NNW5.5 kmh NNW 5.4 mph8.7 kmh 29.34 in993.6 mb 0.00 in0.0 mm 0.00 in/hr0.0 mm/hr 0.00 in0.0 mm
05:55 AM 46.4°F8.0°C 46.1°F7.8°C 99% 3.7 mph NNW6.0 kmh NNW 5.4 mph8.7 kmh 29.34 in993.6 mb 0.00 in0.0 mm 0.00 in/hr0.0 mm/hr 0.00 in0.0 mm
05:54 AM 46.4°F8.0°C 46.1°F7.8°C 99% 3.8 mph NNW6.1 kmh NNW 5.4 mph8.7 kmh 29.34 in993.6 mb 0.00 in0.0 mm 0.00 in/hr0.0 mm/hr 0.00 in0.0 mm
05:53 AM 46.4°F8.0°C 46.1°F7.8°C 99% 3.8 mph NNW6.1 kmh NNW 5.4 mph8.7 kmh 29.34 in993.6 mb 0.00 in0.0 mm 0.00 in/hr0.0 mm/hr 0.00 in0.0 mm
05:52 AM 46.4°F8.0°C 46.1°F7.8°C 99% 3.8 mph NW6.1 kmh NW 5.4 mph8.7 kmh 29.34 in993.6 mb 0.00 in0.0 mm 0.00 in/hr0.0 mm/hr 0.00 in0.0 mm
05:51 AM 46.6°F8.1°C 46.3°F7.9°C 99% 3.7 mph NW6.0 kmh NW 5.4 mph8.7 kmh 29.34 in993.6 mb 0.00 in0.0 mm 0.00 in/hr0.0 mm/hr 0.00 in0.0 mm
05:50 AM 46.6°F8.1°C 46.3°F7.9°C 99% 3.7 mph NW6.0 kmh NW 5.4 mph8.7 kmh 29.34 in993.6 mb 0.00 in0.0 mm 0.00 in/hr0.0 mm/hr 0.00 in0.0 mm
05:49 AM 46.6°F8.1°C 46.3°F7.9°C 99% 3.6 mph NW5.8 kmh NW 4.5 mph7.2 kmh 29.34 in993.6 mb 0.00 in0.0 mm 0.00 in/hr0.0 mm/hr 0.00 in0.0 mm
05:48 AM 46.6°F8.1°C 46.3°F7.9°C 99% 3.6 mph NW5.8 kmh NW 5.4 mph8.7 kmh 29.34 in993.6 mb 0.00 in0.0 mm 0.00 in/hr0.0 mm/hr 0.00 in0.0 mm
05:47 AM 46.6°F8.1°C 46.3°F7.9°C 99% 3.8 mph NW6.1 kmh NW 5.4 mph8.7 kmh 29.34 in993.6 mb 0.00 in0.0 mm 0.00 in/hr0.0 mm/hr 0.00 in0.0 mm
05:46 AM 46.6°F8.1°C 46.3°F7.9°C 99% 3.8 mph NW6.1 kmh NW 5.4 mph8.7 kmh 29.34 in993.6 mb 0.00 in0.0 mm 0.00 in/hr0.0 mm/hr 0.00 in0.0 mm
05:45 AM 46.6°F8.1°C 46.3°F7.9°C 99% 3.9 mph NW6.3 kmh NW 5.4 mph8.7 kmh 29.34 in993.6 mb 0.00 in0.0 mm 0.00 in/hr0.0 mm/hr 0.00 in0.0 mm
05:44 AM 46.6°F8.1°C 46.3°F7.9°C 99% 3.9 mph NW6.3 kmh NW 5.4 mph8.7 kmh 29.34 in993.6 mb 0.00 in0.0 mm 0.00 in/hr0.0 mm/hr 0.00 in0.0 mm
05:43 AM 46.6°F8.1°C 46.3°F7.9°C 99% 3.9 mph NNW6.3 kmh NNW 5.4 mph8.7 kmh 29.33 in993.2 mb 0.00 in0.0 mm 0.00 in/hr0.0 mm/hr 0.00 in0.0 mm
05:42 AM 46.8°F8.2°C 46.5°F8.1°C 99% 3.7 mph NNW6.0 kmh NNW 5.4 mph8.7 kmh 29.34 in993.6 mb 0.00 in0.0 mm 0.00 in/hr0.0 mm/hr 0.00 in0.0 mm
05:41 AM 46.8°F8.2°C 46.5°F8.1°C 99% 3.7 mph NNW6.0 kmh NNW 5.4 mph8.7 kmh 29.34 in993.6 mb 0.00 in0.0 mm 0.00 in/hr0.0 mm/hr 0.00 in0.0 mm
05:40 AM 46.8°F8.2°C 46.5°F8.1°C 99% 3.7 mph NNW6.0 kmh NNW 5.4 mph8.7 kmh 29.34 in993.6 mb 0.00 in0.0 mm 0.00 in/hr0.0 mm/hr 0.00 in0.0 mm
05:39 AM 46.8°F8.2°C 46.5°F8.1°C 99% 3.6 mph NNW5.8 kmh NNW 5.4 mph8.7 kmh 29.33 in993.2 mb 0.00 in0.0 mm 0.00 in/hr0.0 mm/hr 0.00 in0.0 mm
05:38 AM 46.8°F8.2°C 46.5°F8.1°C 99% 3.3 mph NNW5.3 kmh NNW 5.4 mph8.7 kmh 29.33 in993.2 mb 0.00 in0.0 mm 0.00 in/hr0.0 mm/hr 0.00 in0.0 mm
05:37 AM 46.8°F8.2°C 46.5°F8.1°C 99% 3.1 mph NNW5.0 kmh NNW 5.4 mph8.7 kmh 29.33 in993.2 mb 0.00 in0.0 mm 0.00 in/hr0.0 mm/hr 0.00 in0.0 mm
05:36 AM 46.8°F8.2°C 46.5°F8.1°C 99% 3.0 mph NNW4.8 kmh NNW 5.4 mph8.7 kmh 29.33 in993.2 mb 0.00 in0.0 mm 0.00 in/hr0.0 mm/hr 0.00 in0.0 mm
05:35 AM 46.8°F8.2°C 46.5°F8.1°C 99% 2.6 mph NNW4.2 kmh NNW 4.5 mph7.2 kmh 29.33 in993.2 mb 0.00 in0.0 mm 0.00 in/hr0.0 mm/hr 0.00 in0.0 mm
05:34 AM 46.8°F8.2°C 46.5°F8.1°C 99% 2.4 mph NNW3.9 kmh NNW 4.5 mph7.2 kmh 29.33 in993.2 mb 0.00 in0.0 mm 0.00 in/hr0.0 mm/hr 0.00 in0.0 mm
05:33 AM 46.8°F8.2°C 46.5°F8.1°C 99% 2.2 mph NW3.5 kmh NW 4.5 mph7.2 kmh 29.33 in993.2 mb 0.00 in0.0 mm 0.00 in/hr0.0 mm/hr 0.00 in0.0 mm
05:32 AM 46.8°F8.2°C 46.5°F8.1°C 99% 2.3 mph NW3.7 kmh NW 4.5 mph7.2 kmh 29.33 in993.2 mb 0.00 in0.0 mm 0.00 in/hr0.0 mm/hr 0.00 in0.0 mm
05:31 AM 46.8°F8.2°C 46.5°F8.1°C 99% 2.1 mph NW3.4 kmh NW 3.8 mph6.1 kmh 29.33 in993.2 mb 0.00 in0.0 mm 0.00 in/hr0.0 mm/hr 0.00 in0.0 mm
05:30 AM 46.8°F8.2°C 46.5°F8.1°C 99% 2.1 mph NW3.4 kmh NW 3.1 mph5.0 kmh 29.33 in993.2 mb 0.00 in0.0 mm 0.00 in/hr0.0 mm/hr 0.00 in0.0 mm
05:29 AM 46.8°F8.2°C 46.5°F8.1°C 99% 2.2 mph NW3.5 kmh NW 3.8 mph6.1 kmh 29.33 in993.2 mb 0.00 in0.0 mm 0.00 in/hr0.0 mm/hr 0.00 in0.0 mm
05:28 AM 46.8°F8.2°C 46.5°F8.1°C 99% 2.2 mph NW3.5 kmh NW 3.8 mph6.1 kmh 29.33 in993.2 mb 0.00 in0.0 mm 0.00 in/hr0.0 mm/hr 0.00 in0.0 mm
05:27 AM 46.9°F8.3°C 46.7°F8.2°C 99% 2.3 mph NW3.7 kmh NW 3.8 mph6.1 kmh 29.33 in993.2 mb 0.00 in0.0 mm 0.00 in/hr0.0 mm/hr 0.00 in0.0 mm
05:26 AM 46.9°F8.3°C 46.7°F8.2°C 99% 2.5 mph WNW4.0 kmh WNW 4.5 mph7.2 kmh 29.33 in993.2 mb 0.00 in0.0 mm 0.00 in/hr0.0 mm/hr 0.00 in0.0 mm
05:25 AM 46.9°F8.3°C 46.7°F8.2°C 99% 2.6 mph WNW4.2 kmh WNW 4.5 mph7.2 kmh 29.33 in993.2 mb 0.00 in0.0 mm 0.00 in/hr0.0 mm/hr 0.00 in0.0 mm
05:24 AM 46.9°F8.3°C 46.7°F8.2°C 99% 2.9 mph WNW4.7 kmh WNW 4.5 mph7.2 kmh 29.33 in993.2 mb 0.00 in0.0 mm 0.00 in/hr0.0 mm/hr 0.00 in0.0 mm
05:23 AM 46.9°F8.3°C 46.7°F8.2°C 99% 3.1 mph NW5.0 kmh NW 4.5 mph7.2 kmh 29.33 in993.2 mb 0.00 in0.0 mm 0.00 in/hr0.0 mm/hr 0.00 in0.0 mm
05:22 AM 46.9°F8.3°C 46.7°F8.2°C 99% 3.3 mph NW5.3 kmh NW 4.5 mph7.2 kmh 29.33 in993.2 mb 0.00 in0.0 mm 0.00 in/hr0.0 mm/hr 0.00 in0.0 mm
05:21 AM 46.9°F8.3°C 46.7°F8.2°C 99% 3.5 mph NW5.6 kmh NW 5.4 mph8.7 kmh 29.33 in993.2 mb 0.00 in0.0 mm 0.00 in/hr0.0 mm/hr 0.00 in0.0 mm
05:20 AM 46.9°F8.3°C 46.7°F8.2°C 99% 3.6 mph NW5.8 kmh NW 5.4 mph8.7 kmh 29.33 in993.2 mb 0.00 in0.0 mm 0.00 in/hr0.0 mm/hr 0.00 in0.0 mm
05:19 AM 47.1°F8.4°C 46.9°F8.3°C 99% 3.6 mph NW5.8 kmh NW 5.4 mph8.7 kmh 29.33 in993.2 mb 0.00 in0.0 mm 0.00 in/hr0.0 mm/hr 0.00 in0.0 mm
05:18 AM 47.1°F8.4°C 46.9°F8.3°C 99% 3.8 mph WNW6.1 kmh WNW 5.4 mph8.7 kmh 29.32 in992.9 mb 0.00 in0.0 mm 0.00 in/hr0.0 mm/hr 0.00 in0.0 mm
05:17 AM 47.1°F8.4°C 46.9°F8.3°C 99% 4.1 mph NW6.6 kmh NW 6.0 mph9.7 kmh 29.33 in993.2 mb 0.00 in0.0 mm 0.00 in/hr0.0 mm/hr 0.00 in0.0 mm
05:16 AM 47.1°F8.4°C 46.9°F8.3°C 99% 4.1 mph NW6.6 kmh NW 6.0 mph9.7 kmh 29.33 in993.2 mb 0.00 in0.0 mm 0.00 in/hr0.0 mm/hr 0.00 in0.0 mm
05:15 AM 47.1°F8.4°C 46.9°F8.3°C 99% 4.2 mph NW6.8 kmh NW 6.0 mph9.7 kmh 29.33 in993.2 mb 0.00 in0.0 mm 0.00 in/hr0.0 mm/hr 0.00 in0.0 mm
05:14 AM 47.3°F8.5°C 47.0°F8.3°C 99% 4.4 mph WNW7.1 kmh WNW 6.0 mph9.7 kmh 29.33 in993.2 mb 0.00 in0.0 mm 0.00 in/hr0.0 mm/hr 0.00 in0.0 mm
05:13 AM 47.3°F8.5°C 47.0°F8.3°C 99% 4.8 mph NW7.7 kmh NW 8.3 mph13.4 kmh 29.33 in993.2 mb 0.00 in0.0 mm 0.00 in/hr0.0 mm/hr 0.00 in0.0 mm
05:12 AM 47.3°F8.5°C 47.0°F8.3°C 99% 5.1 mph WNW8.2 kmh WNW 8.3 mph13.4 kmh 29.33 in993.2 mb 0.00 in0.0 mm 0.00 in/hr0.0 mm/hr 0.00 in0.0 mm
05:11 AM 47.3°F8.5°C 47.0°F8.3°C 99% 5.3 mph WNW8.5 kmh WNW 9.2 mph14.8 kmh 29.33 in993.2 mb 0.00 in0.0 mm 0.00 in/hr0.0 mm/hr 0.00 in0.0 mm
05:10 AM 47.3°F8.5°C 47.0°F8.3°C 99% 5.8 mph WNW9.3 kmh WNW 9.2 mph14.8 kmh 29.33 in993.2 mb 0.00 in0.0 mm 0.00 in/hr0.0 mm/hr 0.00 in0.0 mm
05:09 AM 47.3°F8.5°C 47.0°F8.3°C 99% 6.1 mph WNW9.8 kmh WNW 9.2 mph14.8 kmh 29.33 in993.2 mb 0.00 in0.0 mm 0.00 in/hr0.0 mm/hr 0.00 in0.0 mm
05:08 AM 47.3°F8.5°C 47.0°F8.3°C 99% 6.4 mph NW10.3 kmh NW 9.2 mph14.8 kmh 29.33 in993.2 mb 0.00 in0.0 mm 0.00 in/hr0.0 mm/hr 0.00 in0.0 mm
05:07 AM 47.3°F8.5°C 47.0°F8.3°C 99% 6.3 mph NW10.1 kmh NW 9.2 mph14.8 kmh 29.33 in993.2 mb 0.00 in0.0 mm 0.00 in/hr0.0 mm/hr 0.00 in0.0 mm
05:06 AM 47.3°F8.5°C 47.0°F8.3°C 99% 6.3 mph WNW10.1 kmh WNW 9.2 mph14.8 kmh 29.33 in993.2 mb 0.00 in0.0 mm 0.00 in/hr0.0 mm/hr 0.00 in0.0 mm
05:05 AM 47.3°F8.5°C 47.0°F8.3°C 99% 6.5 mph NW10.5 kmh NW 9.2 mph14.8 kmh 29.33 in993.2 mb 0.00 in0.0 mm 0.00 in/hr0.0 mm/hr 0.00 in0.0 mm
05:04 AM 47.3°F8.5°C 47.0°F8.3°C 99% 6.5 mph NW10.5 kmh NW 9.2 mph14.8 kmh 29.32 in992.9 mb 0.00 in0.0 mm 0.00 in/hr0.0 mm/hr 0.00 in0.0 mm
05:03 AM 47.3°F8.5°C 47.0°F8.3°C 99% 6.4 mph NW10.3 kmh NW 9.2 mph14.8 kmh 29.32 in992.9 mb 0.00 in0.0 mm 0.00 in/hr0.0 mm/hr 0.00 in0.0 mm
05:02 AM 47.3°F8.5°C 47.0°F8.3°C 99% 6.4 mph NW10.3 kmh NW 9.2 mph14.8 kmh 29.32 in992.9 mb 0.00 in0.0 mm 0.00 in/hr0.0 mm/hr 0.00 in0.0 mm
05:01 AM 47.3°F8.5°C 47.0°F8.3°C 99% 6.5 mph NW10.5 kmh NW 9.2 mph14.8 kmh 29.33 in993.2 mb 0.00 in0.0 mm 0.00 in/hr0.0 mm/hr 0.00 in0.0 mm
05:00 AM 47.3°F8.5°C 47.0°F8.3°C 99% 6.3 mph NW10.1 kmh NW 9.2 mph14.8 kmh 29.33 in993.2 mb 0.00 in0.0 mm 0.00 in/hr0.0 mm/hr 0.00 in0.0 mm
04:59 AM 47.3°F8.5°C 47.0°F8.3°C 99% 6.2 mph NW10.0 kmh NW 9.2 mph14.8 kmh 29.32 in992.9 mb 0.00 in0.0 mm 0.00 in/hr0.0 mm/hr 0.00 in0.0 mm
04:58 AM 47.3°F8.5°C 47.0°F8.3°C 99% 6.0 mph NW9.7 kmh NW 8.3 mph13.4 kmh 29.32 in992.9 mb 0.00 in0.0 mm 0.00 in/hr0.0 mm/hr 0.00 in0.0 mm
04:57 AM 47.1°F8.4°C 46.9°F8.3°C 99% 6.0 mph NW9.7 kmh NW 8.3 mph13.4 kmh 29.32 in992.9 mb 0.00 in0.0 mm 0.00 in/hr0.0 mm/hr 0.00 in0.0 mm
04:56 AM 47.1°F8.4°C 46.9°F8.3°C 99% 6.0 mph NW9.7 kmh NW 8.3 mph13.4 kmh 29.32 in992.9 mb 0.00 in0.0 mm 0.00 in/hr0.0 mm/hr 0.00 in0.0 mm
04:55 AM 47.1°F8.4°C 46.9°F8.3°C 99% 5.8 mph NW9.3 kmh NW 8.3 mph13.4 kmh 29.32 in992.9 mb 0.00 in0.0 mm 0.00 in/hr0.0 mm/hr 0.00 in0.0 mm
04:54 AM 47.1°F8.4°C 46.9°F8.3°C 99% 5.7 mph NW9.2 kmh NW 8.3 mph13.4 kmh 29.32 in992.9 mb 0.00 in0.0 mm 0.00 in/hr0.0 mm/hr 0.00 in0.0 mm
04:53 AM 47.1°F8.4°C 46.9°F8.3°C 99% 5.5 mph NW8.9 kmh NW 8.3 mph13.4 kmh 29.32 in992.9 mb 0.00 in0.0 mm 0.00 in/hr0.0 mm/hr 0.00 in0.0 mm
04:52 AM 46.9°F8.3°C 46.7°F8.2°C 99% 5.4 mph NW8.7 kmh NW 8.3 mph13.4 kmh 29.32 in992.9 mb 0.00 in0.0 mm 0.00 in/hr0.0 mm/hr 0.00 in0.0 mm
04:51 AM 46.9°F8.3°C 46.7°F8.2°C 99% 5.1 mph NW8.2 kmh NW 8.3 mph13.4 kmh 29.32 in992.9 mb 0.00 in0.0 mm 0.00 in/hr0.0 mm/hr 0.00 in0.0 mm
04:50 AM 46.9°F8.3°C 46.7°F8.2°C 99% 4.9 mph NW7.9 kmh NW 6.0 mph9.7 kmh 29.32 in992.9 mb 0.00 in0.0 mm 0.00 in/hr0.0 mm/hr 0.00 in0.0 mm
04:49 AM 46.9°F8.3°C 46.7°F8.2°C 99% 4.9 mph NW7.9 kmh NW 6.0 mph9.7 kmh 29.32 in992.9 mb 0.00 in0.0 mm 0.00 in/hr0.0 mm/hr 0.00 in0.0 mm
04:48 AM 46.9°F8.3°C 46.7°F8.2°C 99% 4.8 mph NW7.7 kmh NW 6.0 mph9.7 kmh 29.32 in992.9 mb 0.00 in0.0 mm 0.00 in/hr0.0 mm/hr 0.00 in0.0 mm
04:47 AM 46.9°F8.3°C 46.7°F8.2°C 99% 4.8 mph NW7.7 kmh NW 6.0 mph9.7 kmh 29.32 in992.9 mb 0.00 in0.0 mm 0.00 in/hr0.0 mm/hr 0.00 in0.0 mm
04:46 AM 46.9°F8.3°C 46.7°F8.2°C 99% 5.0 mph NW8.0 kmh NW 6.9 mph11.1 kmh 29.32 in992.9 mb 0.00 in0.0 mm 0.00 in/hr0.0 mm/hr 0.00 in0.0 mm
04:45 AM 46.9°F8.3°C 46.7°F8.2°C 99% 5.2 mph NW8.4 kmh NW 6.9 mph11.1 kmh 29.32 in992.9 mb 0.00 in0.0 mm 0.00 in/hr0.0 mm/hr 0.00 in0.0 mm
04:44 AM 46.9°F8.3°C 46.7°F8.2°C 99% 5.4 mph NW8.7 kmh NW 6.9 mph11.1 kmh 29.32 in992.9 mb 0.00 in0.0 mm 0.00 in/hr0.0 mm/hr 0.00 in0.0 mm
04:43 AM 46.9°F8.3°C 46.7°F8.2°C 99% 5.3 mph NW8.5 kmh NW 6.9 mph11.1 kmh 29.32 in992.9 mb 0.00 in0.0 mm 0.00 in/hr0.0 mm/hr 0.00 in0.0 mm
04:42 AM 46.9°F8.3°C 46.7°F8.2°C 99% 5.1 mph NW8.2 kmh NW 6.9 mph11.1 kmh 29.32 in992.9 mb 0.00 in0.0 mm 0.00 in/hr0.0 mm/hr 0.00 in0.0 mm
04:41 AM 46.9°F8.3°C 46.7°F8.2°C 99% 5.0 mph NW8.0 kmh NW 6.9 mph11.1 kmh 29.32 in992.9 mb 0.00 in0.0 mm 0.00 in/hr0.0 mm/hr 0.00 in0.0 mm
04:40 AM 46.9°F8.3°C 46.7°F8.2°C 99% 5.0 mph NW8.0 kmh NW 6.9 mph11.1 kmh 29.32 in992.9 mb 0.00 in0.0 mm 0.00 in/hr0.0 mm/hr 0.00 in0.0 mm
04:39 AM 46.9°F8.3°C 46.7°F8.2°C 99% 5.0 mph NW8.0 kmh NW 6.9 mph11.1 kmh 29.32 in992.9 mb 0.00 in0.0 mm 0.00 in/hr0.0 mm/hr 0.00 in0.0 mm
04:38 AM 46.9°F8.3°C 46.7°F8.2°C 99% 5.0 mph NW8.0 kmh NW 6.9 mph11.1 kmh 29.32 in992.9 mb 0.00 in0.0 mm 0.00 in/hr0.0 mm/hr 0.00 in0.0 mm
04:37 AM 46.9°F8.3°C 46.7°F8.2°C 99% 5.0 mph NNW8.0 kmh NNW 6.9 mph11.1 kmh 29.32 in992.9 mb 0.00 in0.0 mm 0.00 in/hr0.0 mm/hr 0.00 in0.0 mm
04:36 AM 46.9°F8.3°C 46.7°F8.2°C 99% 4.8 mph NNW7.7 kmh NNW 6.9 mph11.1 kmh 29.32 in992.9 mb 0.00 in0.0 mm 0.00 in/hr0.0 mm/hr 0.00 in0.0 mm
04:35 AM 46.9°F8.3°C 46.7°F8.2°C 99% 4.6 mph NNW7.4 kmh NNW 6.9 mph11.1 kmh 29.32 in992.9 mb 0.00 in0.0 mm 0.00 in/hr0.0 mm/hr 0.00 in0.0 mm
04:34 AM 46.9°F8.3°C 46.7°F8.2°C 99% 4.4 mph NNW7.1 kmh NNW 6.9 mph11.1 kmh 29.32 in992.9 mb 0.00 in0.0 mm 0.00 in/hr0.0 mm/hr 0.00 in0.0 mm
04:33 AM 46.9°F8.3°C 46.7°F8.2°C 99% 4.2 mph NNW6.8 kmh NNW 6.0 mph9.7 kmh 29.32 in992.9 mb 0.00 in0.0 mm 0.00 in/hr0.0 mm/hr 0.00 in0.0 mm
04:32 AM 46.9°F8.3°C 46.7°F8.2°C 99% 4.2 mph NW6.8 kmh NW 6.0 mph9.7 kmh 29.32 in992.9 mb 0.00 in0.0 mm 0.00 in/hr0.0 mm/hr 0.00 in0.0 mm
04:31 AM 46.9°F8.3°C 46.7°F8.2°C 99% 4.3 mph NW6.9 kmh NW 6.0 mph9.7 kmh 29.32 in992.9 mb 0.00 in0.0 mm 0.00 in/hr0.0 mm/hr 0.00 in0.0 mm
04:30 AM 46.9°F8.3°C 46.7°F8.2°C 99% 4.3 mph NW6.9 kmh NW 6.0 mph9.7 kmh 29.31 in992.6 mb 0.00 in0.0 mm 0.00 in/hr0.0 mm/hr 0.00 in0.0 mm
04:29 AM 46.9°F8.3°C 46.7°F8.2°C 99% 4.2 mph NNW6.8 kmh NNW 5.4 mph8.7 kmh 29.32 in992.9 mb 0.00 in0.0 mm 0.00 in/hr0.0 mm/hr 0.00 in0.0 mm
04:28 AM 46.9°F8.3°C 46.7°F8.2°C 99% 4.1 mph NNW6.6 kmh NNW 6.0 mph9.7 kmh 29.32 in992.9 mb 0.00 in0.0 mm 0.00 in/hr0.0 mm/hr 0.00 in0.0 mm
04:27 AM 46.9°F8.3°C 46.7°F8.2°C 99% 4.1 mph NW6.6 kmh NW 6.0 mph9.7 kmh 29.32 in992.9 mb 0.00 in0.0 mm 0.00 in/hr0.0 mm/hr 0.00 in0.0 mm
04:26 AM 46.9°F8.3°C 46.7°F8.2°C 99% 4.1 mph NW6.6 kmh NW 6.0 mph9.7 kmh 29.31 in992.6 mb 0.00 in0.0 mm 0.00 in/hr0.0 mm/hr 0.00 in0.0 mm
04:25 AM 46.9°F8.3°C 46.7°F8.2°C 99% 4.1 mph WNW6.6 kmh WNW 6.0 mph9.7 kmh 29.32 in992.9 mb 0.00 in0.0 mm 0.00 in/hr0.0 mm/hr 0.00 in0.0 mm
04:24 AM 46.8°F8.2°C 46.5°F8.1°C 99% 4.2 mph WNW6.8 kmh WNW 6.0 mph9.7 kmh 29.32 in992.9 mb 0.00 in0.0 mm 0.00 in/hr0.0 mm/hr 0.00 in0.0 mm
04:23 AM 46.8°F8.2°C 46.5°F8.1°C 99% 4.3 mph WNW6.9 kmh WNW 6.0 mph9.7 kmh 29.32 in992.9 mb 0.00 in0.0 mm 0.00 in/hr0.0 mm/hr 0.00 in0.0 mm
04:22 AM 46.8°F8.2°C 46.5°F8.1°C 99% 4.1 mph NW6.6 kmh NW 6.0 mph9.7 kmh 29.31 in992.6 mb 0.00 in0.0 mm 0.00 in/hr0.0 mm/hr 0.00 in0.0 mm
04:21 AM 46.8°F8.2°C 46.5°F8.1°C 99% 4.0 mph NW6.4 kmh NW 6.0 mph9.7 kmh 29.31 in992.6 mb 0.00 in0.0 mm 0.00 in/hr0.0 mm/hr 0.00 in0.0 mm
04:20 AM 46.8°F8.2°C 46.5°F8.1°C 99% 3.7 mph NW6.0 kmh NW 6.0 mph9.7 kmh 29.31 in992.6 mb 0.00 in0.0 mm 0.00 in/hr0.0 mm/hr 0.00 in0.0 mm
04:19 AM 46.8°F8.2°C 46.5°F8.1°C 99% 3.7 mph NW6.0 kmh NW 6.0 mph9.7 kmh 29.31 in992.6 mb 0.00 in0.0 mm 0.00 in/hr0.0 mm/hr 0.00 in0.0 mm
04:18 AM 46.8°F8.2°C 46.5°F8.1°C 99% 3.7 mph NW6.0 kmh NW 6.0 mph9.7 kmh 29.32 in992.9 mb 0.00 in0.0 mm 0.00 in/hr0.0 mm/hr 0.00 in0.0 mm
04:17 AM 46.8°F8.2°C 46.5°F8.1°C 99% 3.4 mph NW5.5 kmh NW 4.5 mph7.2 kmh 29.31 in992.6 mb 0.00 in0.0 mm 0.00 in/hr0.0 mm/hr 0.00 in0.0 mm
04:16 AM 46.8°F8.2°C 46.5°F8.1°C 99% 3.3 mph NW5.3 kmh NW 4.5 mph7.2 kmh 29.32 in992.9 mb 0.00 in0.0 mm 0.00 in/hr0.0 mm/hr 0.00 in0.0 mm
04:15 AM 46.8°F8.2°C 46.5°F8.1°C 99% 3.2 mph NW5.1 kmh NW 4.5 mph7.2 kmh 29.32 in992.9 mb 0.00 in0.0 mm 0.00 in/hr0.0 mm/hr 0.00 in0.0 mm
04:14 AM 46.8°F8.2°C 46.5°F8.1°C 99% 3.0 mph NW4.8 kmh NW 3.8 mph6.1 kmh 29.32 in992.9 mb 0.00 in0.0 mm 0.00 in/hr0.0 mm/hr 0.00 in0.0 mm
04:13 AM 46.8°F8.2°C 46.5°F8.1°C 99% 3.0 mph NW4.8 kmh NW 4.5 mph7.2 kmh 29.32 in992.9 mb 0.00 in0.0 mm 0.00 in/hr0.0 mm/hr 0.00 in0.0 mm
04:12 AM 46.8°F8.2°C 46.5°F8.1°C 99% 3.1 mph NW5.0 kmh NW 4.5 mph7.2 kmh 29.32 in992.9 mb 0.00 in0.0 mm 0.00 in/hr0.0 mm/hr 0.00 in0.0 mm
04:11 AM 46.8°F8.2°C 46.5°F8.1°C 99% 3.1 mph NW5.0 kmh NW 4.5 mph7.2 kmh 29.32 in992.9 mb 0.00 in0.0 mm 0.00 in/hr0.0 mm/hr 0.00 in0.0 mm
04:10 AM 46.9°F8.3°C 46.7°F8.2°C 99% 3.2 mph NNW5.1 kmh NNW 4.5 mph7.2 kmh 29.32 in992.9 mb 0.00 in0.0 mm 0.00 in/hr0.0 mm/hr 0.00 in0.0 mm
04:09 AM 46.9°F8.3°C 46.7°F8.2°C 99% 3.2 mph NNW5.1 kmh NNW 4.5 mph7.2 kmh 29.32 in992.9 mb 0.00 in0.0 mm 0.00 in/hr0.0 mm/hr 0.00 in0.0 mm
04:08 AM 46.9°F8.3°C 46.7°F8.2°C 99% 3.2 mph NNW5.1 kmh NNW 4.5 mph7.2 kmh 29.31 in992.6 mb 0.00 in0.0 mm 0.00 in/hr0.0 mm/hr 0.00 in0.0 mm
04:07 AM 46.9°F8.3°C 46.7°F8.2°C 99% 3.2 mph NNW5.1 kmh NNW 4.5 mph7.2 kmh 29.32 in992.9 mb 0.00 in0.0 mm 0.00 in/hr0.0 mm/hr 0.00 in0.0 mm
04:06 AM 46.9°F8.3°C 46.7°F8.2°C 99% 3.3 mph NNW5.3 kmh NNW 4.5 mph7.2 kmh 29.32 in992.9 mb 0.00 in0.0 mm 0.00 in/hr0.0 mm/hr 0.00 in0.0 mm
04:05 AM 46.9°F8.3°C 46.7°F8.2°C 99% 3.2 mph N5.1 kmh N 4.5 mph7.2 kmh 29.32 in992.9 mb 0.00 in0.0 mm 0.00 in/hr0.0 mm/hr 0.00 in0.0 mm
04:04 AM 47.1°F8.4°C 46.9°F8.3°C 99% 3.1 mph N5.0 kmh N 4.5 mph7.2 kmh 29.32 in992.9 mb 0.00 in0.0 mm 0.00 in/hr0.0 mm/hr 0.00 in0.0 mm
04:03 AM 47.1°F8.4°C 46.9°F8.3°C 99% 3.1 mph N5.0 kmh N 4.5 mph7.2 kmh 29.32 in992.9 mb 0.00 in0.0 mm 0.00 in/hr0.0 mm/hr 0.00 in0.0 mm
04:02 AM 47.1°F8.4°C 46.9°F8.3°C 99% 3.0 mph N4.8 kmh N 3.8 mph6.1 kmh 29.32 in992.9 mb 0.00 in0.0 mm 0.00 in/hr0.0 mm/hr 0.00 in0.0 mm
04:01 AM 47.1°F8.4°C 46.9°F8.3°C 99% 3.1 mph N5.0 kmh N 4.5 mph7.2 kmh 29.32 in992.9 mb 0.00 in0.0 mm 0.00 in/hr0.0 mm/hr 0.00 in0.0 mm
04:00 AM 47.1°F8.4°C 46.9°F8.3°C 99% 3.0 mph N4.8 kmh N 4.5 mph7.2 kmh 29.31 in992.6 mb 0.00 in0.0 mm 0.00 in/hr0.0 mm/hr 0.00 in0.0 mm
03:59 AM 47.3°F8.5°C 47.0°F8.3°C 99% 3.0 mph NNW4.8 kmh NNW 4.5 mph7.2 kmh 29.32 in992.9 mb 0.00 in0.0 mm 0.00 in/hr0.0 mm/hr 0.00 in0.0 mm
03:58 AM 47.3°F8.5°C 47.0°F8.3°C 99% 2.9 mph NNW4.7 kmh NNW 4.5 mph7.2 kmh 29.31 in992.6 mb 0.00 in0.0 mm 0.00 in/hr0.0 mm/hr 0.00 in0.0 mm
03:57 AM 47.3°F8.5°C 47.0°F8.3°C 99% 3.0 mph NNW4.8 kmh NNW 4.5 mph7.2 kmh 29.31 in992.6 mb 0.00 in0.0 mm 0.00 in/hr0.0 mm/hr 0.00 in0.0 mm
03:56 AM 47.3°F8.5°C 47.0°F8.3°C 99% 3.0 mph NNW4.8 kmh NNW 4.5 mph7.2 kmh 29.32 in992.9 mb 0.00 in0.0 mm 0.00 in/hr0.0 mm/hr 0.00 in0.0 mm
03:55 AM 47.3°F8.5°C 47.0°F8.3°C 99% 3.1 mph NNW5.0 kmh NNW 4.5 mph7.2 kmh 29.31 in992.6 mb 0.00 in0.0 mm 0.00 in/hr0.0 mm/hr 0.00 in0.0 mm
03:54 AM 47.1°F8.4°C 46.9°F8.3°C 99% 3.4 mph NNW5.5 kmh NNW 4.5 mph7.2 kmh 29.31 in992.6 mb 0.00 in0.0 mm 0.00 in/hr0.0 mm/hr 0.00 in0.0 mm
03:53 AM 47.3°F8.5°C 47.0°F8.3°C 99% 3.5 mph N5.6 kmh N 4.5 mph7.2 kmh 29.31 in992.6 mb 0.00 in0.0 mm 0.00 in/hr0.0 mm/hr 0.00 in0.0 mm
03:52 AM 47.3°F8.5°C 47.0°F8.3°C 99% 3.4 mph NNW5.5 kmh NNW 4.5 mph7.2 kmh 29.31 in992.6 mb 0.00 in0.0 mm 0.00 in/hr0.0 mm/hr 0.00 in0.0 mm
03:51 AM 47.5°F8.6°C 47.2°F8.4°C 99% 3.2 mph N5.1 kmh N 4.5 mph7.2 kmh 29.31 in992.6 mb 0.00 in0.0 mm 0.00 in/hr0.0 mm/hr 0.00 in0.0 mm
03:50 AM 47.5°F8.6°C 47.2°F8.4°C 99% 3.2 mph N5.1 kmh N 4.5 mph7.2 kmh 29.31 in992.6 mb 0.00 in0.0 mm 0.00 in/hr0.0 mm/hr 0.00 in0.0 mm
03:49 AM 47.5°F8.6°C 47.2°F8.4°C 99% 3.2 mph N5.1 kmh N 4.5 mph7.2 kmh 29.31 in992.6 mb 0.00 in0.0 mm 0.00 in/hr0.0 mm/hr 0.00 in0.0 mm
03:48 AM 47.5°F8.6°C 47.2°F8.4°C 99% 3.3 mph NNW5.3 kmh NNW 4.5 mph7.2 kmh 29.31 in992.6 mb 0.00 in0.0 mm 0.00 in/hr0.0 mm/hr 0.00 in0.0 mm
03:47 AM 47.5°F8.6°C 47.2°F8.4°C 99% 3.2 mph N5.1 kmh N 4.5 mph7.2 kmh 29.31 in992.6 mb 0.00 in0.0 mm 0.00 in/hr0.0 mm/hr 0.00 in0.0 mm
03:46 AM 47.5°F8.6°C 47.2°F8.4°C 99% 3.1 mph N5.0 kmh N 4.5 mph7.2 kmh 29.31 in992.6 mb 0.00 in0.0 mm 0.00 in/hr0.0 mm/hr 0.00 in0.0 mm
03:45 AM 47.5°F8.6°C 47.2°F8.4°C 99% 3.0 mph N4.8 kmh N 4.5 mph7.2 kmh 29.31 in992.6 mb 0.00 in0.0 mm 0.00 in/hr0.0 mm/hr 0.00 in0.0 mm
03:44 AM 47.5°F8.6°C 47.2°F8.4°C 99% 3.0 mph NNW4.8 kmh NNW 4.5 mph7.2 kmh 29.31 in992.6 mb 0.00 in0.0 mm 0.00 in/hr0.0 mm/hr 0.00 in0.0 mm
03:43 AM 47.7°F8.7°C 47.4°F8.6°C 99% 2.9 mph NNW4.7 kmh NNW 4.5 mph7.2 kmh 29.31 in992.6 mb 0.00 in0.0 mm 0.00 in/hr0.0 mm/hr 0.00 in0.0 mm
03:42 AM 47.7°F8.7°C 47.4°F8.6°C 99% 3.0 mph NNW4.8 kmh NNW 4.5 mph7.2 kmh 29.31 in992.6 mb 0.00 in0.0 mm 0.00 in/hr0.0 mm/hr 0.00 in0.0 mm
03:41 AM 47.7°F8.7°C 47.4°F8.6°C 99% 3.1 mph NNW5.0 kmh NNW 4.5 mph7.2 kmh 29.32 in992.9 mb 0.00 in0.0 mm 0.00 in/hr0.0 mm/hr 0.00 in0.0 mm
03:40 AM 47.7°F8.7°C 47.4°F8.6°C 99% 3.3 mph NNW5.3 kmh NNW 5.4 mph8.7 kmh 29.31 in992.6 mb 0.00 in0.0 mm 0.00 in/hr0.0 mm/hr 0.00 in0.0 mm
03:39 AM 47.7°F8.7°C 47.4°F8.6°C 99% 3.5 mph NW5.6 kmh NW 5.4 mph8.7 kmh 29.31 in992.6 mb 0.00 in0.0 mm 0.00 in/hr0.0 mm/hr 0.00 in0.0 mm
03:38 AM 47.7°F8.7°C 47.4°F8.6°C 99% 3.8 mph NW6.1 kmh NW 6.9 mph11.1 kmh 29.31 in992.6 mb 0.00 in0.0 mm 0.00 in/hr0.0 mm/hr 0.00 in0.0 mm
03:37 AM 47.8°F8.8°C 47.6°F8.7°C 99% 4.0 mph NW6.4 kmh NW 6.9 mph11.1 kmh 29.32 in992.9 mb 0.00 in0.0 mm 0.00 in/hr0.0 mm/hr 0.00 in0.0 mm
03:36 AM 47.8°F8.8°C 47.6°F8.7°C 99% 4.0 mph NW6.4 kmh NW 6.9 mph11.1 kmh 29.32 in992.9 mb 0.00 in0.0 mm 0.00 in/hr0.0 mm/hr 0.00 in0.0 mm
03:35 AM 47.8°F8.8°C 47.6°F8.7°C 99% 4.1 mph NW6.6 kmh NW 6.9 mph11.1 kmh 29.32 in992.9 mb 0.00 in0.0 mm 0.00 in/hr0.0 mm/hr 0.00 in0.0 mm
03:34 AM 47.8°F8.8°C 47.6°F8.7°C 99% 4.3 mph NW6.9 kmh NW 6.9 mph11.1 kmh 29.32 in992.9 mb 0.00 in0.0 mm 0.00 in/hr0.0 mm/hr 0.00 in0.0 mm
03:33 AM 47.8°F8.8°C 47.6°F8.7°C 99% 4.7 mph NW7.6 kmh NW 6.9 mph11.1 kmh 29.32 in992.9 mb 0.00 in0.0 mm 0.00 in/hr0.0 mm/hr 0.00 in0.0 mm
03:32 AM 47.8°F8.8°C 47.6°F8.7°C 99% 4.8 mph NW7.7 kmh NW 6.9 mph11.1 kmh 29.32 in992.9 mb 0.00 in0.0 mm 0.00 in/hr0.0 mm/hr 0.00 in0.0 mm
03:31 AM 47.8°F8.8°C 47.6°F8.7°C 99% 4.9 mph NW7.9 kmh NW 6.9 mph11.1 kmh 29.32 in992.9 mb 0.00 in0.0 mm 0.00 in/hr0.0 mm/hr 0.00 in0.0 mm
03:30 AM 47.8°F8.8°C 47.6°F8.7°C 99% 5.1 mph NW8.2 kmh NW 6.9 mph11.1 kmh 29.32 in992.9 mb 0.00 in0.0 mm 0.00 in/hr0.0 mm/hr 0.00 in0.0 mm
03:29 AM 47.8°F8.8°C 47.6°F8.7°C 99% 5.3 mph NW8.5 kmh NW 7.6 mph12.2 kmh 29.32 in992.9 mb 0.00 in0.0 mm 0.00 in/hr0.0 mm/hr 0.00 in0.0 mm
03:28 AM 47.8°F8.8°C 47.6°F8.7°C 99% 5.2 mph NW8.4 kmh NW 7.6 mph12.2 kmh 29.31 in992.6 mb 0.00 in0.0 mm 0.00 in/hr0.0 mm/hr 0.00 in0.0 mm
03:27 AM 47.8°F8.8°C 47.6°F8.7°C 99% 5.2 mph NW8.4 kmh NW 7.6 mph12.2 kmh 29.31 in992.6 mb 0.00 in0.0 mm 0.00 in/hr0.0 mm/hr 0.00 in0.0 mm
03:26 AM 48.0°F8.9°C 47.8°F8.8°C 99% 5.4 mph NW8.7 kmh NW 7.6 mph12.2 kmh 29.31 in992.6 mb 0.00 in0.0 mm 0.00 in/hr0.0 mm/hr 0.00 in0.0 mm
03:25 AM 48.0°F8.9°C 47.8°F8.8°C 99% 5.7 mph NW9.2 kmh NW 7.6 mph12.2 kmh 29.31 in992.6 mb 0.00 in0.0 mm 0.00 in/hr0.0 mm/hr 0.00 in0.0 mm
03:24 AM 48.0°F8.9°C 47.8°F8.8°C 99% 5.6 mph NNW9.0 kmh NNW 7.6 mph12.2 kmh 29.31 in992.6 mb 0.00 in0.0 mm 0.00 in/hr0.0 mm/hr 0.00 in0.0 mm
03:23 AM 48.0°F8.9°C 47.8°F8.8°C 99% 5.3 mph NW8.5 kmh NW 7.6 mph12.2 kmh 29.31 in992.6 mb 0.00 in0.0 mm 0.00 in/hr0.0 mm/hr 0.00 in0.0 mm
03:22 AM 48.0°F8.9°C 47.8°F8.8°C 99% 5.1 mph NW8.2 kmh NW 7.6 mph12.2 kmh 29.31 in992.6 mb 0.00 in0.0 mm 0.00 in/hr0.0 mm/hr 0.00 in0.0 mm
03:21 AM 48.0°F8.9°C 47.8°F8.8°C 99% 5.0 mph NW8.0 kmh NW 7.6 mph12.2 kmh 29.31 in992.6 mb 0.00 in0.0 mm 0.00 in/hr0.0 mm/hr 0.00 in0.0 mm
03:20 AM 48.0°F8.9°C 47.8°F8.8°C 99% 4.9 mph NW7.9 kmh NW 7.6 mph12.2 kmh 29.31 in992.6 mb 0.00 in0.0 mm 0.00 in/hr0.0 mm/hr 0.00 in0.0 mm
03:19 AM 48.0°F8.9°C 47.8°F8.8°C 99% 4.6 mph NW7.4 kmh NW 6.0 mph9.7 kmh 29.31 in992.6 mb 0.00 in0.0 mm 0.00 in/hr0.0 mm/hr 0.00 in0.0 mm
03:18 AM 48.0°F8.9°C 47.8°F8.8°C 99% 4.5 mph NW7.2 kmh NW 6.0 mph9.7 kmh 29.31 in992.6 mb 0.00 in0.0 mm 0.00 in/hr0.0 mm/hr 0.00 in0.0 mm
03:17 AM 48.0°F8.9°C 47.8°F8.8°C 99% 4.6 mph NW7.4 kmh NW 6.0 mph9.7 kmh 29.31 in992.6 mb 0.00 in0.0 mm 0.00 in/hr0.0 mm/hr 0.00 in0.0 mm
03:16 AM 48.0°F8.9°C 47.8°F8.8°C 99% 4.5 mph NNW7.2 kmh NNW 6.9 mph11.1 kmh 29.31 in992.6 mb 0.00 in0.0 mm 0.00 in/hr0.0 mm/hr 0.00 in0.0 mm
03:15 AM 48.0°F8.9°C 47.8°F8.8°C 99% 4.5 mph NNW7.2 kmh NNW 6.9 mph11.1 kmh 29.31 in992.6 mb 0.00 in0.0 mm 0.00 in/hr0.0 mm/hr 0.00 in0.0 mm
03:14 AM 48.2°F9.0°C 47.9°F8.8°C 99% 4.5 mph NNW7.2 kmh NNW 6.9 mph11.1 kmh 29.31 in992.6 mb 0.00 in0.0 mm 0.00 in/hr0.0 mm/hr 0.00 in0.0 mm
03:13 AM 48.2°F9.0°C 47.9°F8.8°C 99% 4.6 mph NNW7.4 kmh NNW 6.9 mph11.1 kmh 29.31 in992.6 mb 0.00 in0.0 mm 0.00 in/hr0.0 mm/hr 0.00 in0.0 mm
03:12 AM 48.2°F9.0°C 47.9°F8.8°C 99% 4.6 mph NNW7.4 kmh NNW 6.9 mph11.1 kmh 29.31 in992.6 mb 0.00 in0.0 mm 0.00 in/hr0.0 mm/hr 0.00 in0.0 mm
03:11 AM 48.2°F9.0°C 47.9°F8.8°C 99% 4.7 mph NNW7.6 kmh NNW 6.9 mph11.1 kmh 29.31 in992.6 mb 0.00 in0.0 mm 0.00 in/hr0.0 mm/hr 0.00 in0.0 mm
03:10 AM 48.2°F9.0°C 47.9°F8.8°C 99% 4.8 mph NNW7.7 kmh NNW 6.9 mph11.1 kmh 29.31 in992.6 mb 0.00 in0.0 mm 0.00 in/hr0.0 mm/hr 0.00 in0.0 mm
03:09 AM 48.2°F9.0°C 47.9°F8.8°C 99% 4.9 mph NNW7.9 kmh NNW 6.9 mph11.1 kmh 29.32 in992.9 mb 0.00 in0.0 mm 0.00 in/hr0.0 mm/hr 0.00 in0.0 mm
03:08 AM 48.2°F9.0°C 47.9°F8.8°C 99% 4.8 mph NNW7.7 kmh NNW 6.9 mph11.1 kmh 29.32 in992.9 mb 0.00 in0.0 mm 0.00 in/hr0.0 mm/hr 0.00 in0.0 mm
03:07 AM 48.2°F9.0°C 47.9°F8.8°C 99% 4.7 mph NNW7.6 kmh NNW 6.9 mph11.1 kmh 29.32 in992.9 mb 0.00 in0.0 mm 0.00 in/hr0.0 mm/hr 0.00 in0.0 mm
03:06 AM 48.2°F9.0°C 47.9°F8.8°C 99% 4.7 mph NNW7.6 kmh NNW 6.9 mph11.1 kmh 29.32 in992.9 mb 0.00 in0.0 mm 0.00 in/hr0.0 mm/hr 0.00 in0.0 mm
03:05 AM 48.2°F9.0°C 47.9°F8.8°C 99% 4.5 mph NNW7.2 kmh NNW 6.0 mph9.7 kmh 29.32 in992.9 mb 0.00 in0.0 mm 0.00 in/hr0.0 mm/hr 0.00 in0.0 mm
03:04 AM 48.2°F9.0°C 47.9°F8.8°C 99% 4.6 mph NW7.4 kmh NW 6.0 mph9.7 kmh 29.32 in992.9 mb 0.00 in0.0 mm 0.00 in/hr0.0 mm/hr 0.00 in0.0 mm
03:03 AM 48.4°F9.1°C 48.1°F8.9°C 99% 4.7 mph NW7.6 kmh NW 6.0 mph9.7 kmh 29.32 in992.9 mb 0.00 in0.0 mm 0.00 in/hr0.0 mm/hr 0.00 in0.0 mm
03:02 AM 48.4°F9.1°C 48.1°F8.9°C 99% 4.5 mph NW7.2 kmh NW 6.0 mph9.7 kmh 29.32 in992.9 mb 0.00 in0.0 mm 0.00 in/hr0.0 mm/hr 0.00 in0.0 mm
03:01 AM 48.4°F9.1°C 48.1°F8.9°C 99% 4.7 mph NW7.6 kmh NW 6.9 mph11.1 kmh 29.32 in992.9 mb 0.00 in0.0 mm 0.00 in/hr0.0 mm/hr 0.00 in0.0 mm
03:00 AM 48.2°F9.0°C 47.9°F8.8°C 99% 4.7 mph NW7.6 kmh NW 6.9 mph11.1 kmh 29.32 in992.9 mb 0.00 in0.0 mm 0.00 in/hr0.0 mm/hr 0.00 in0.0 mm
02:59 AM 48.4°F9.1°C 48.1°F8.9°C 99% 4.8 mph NW7.7 kmh NW 6.9 mph11.1 kmh 29.32 in992.9 mb 0.00 in0.0 mm 0.00 in/hr0.0 mm/hr 0.00 in0.0 mm
02:58 AM 48.4°F9.1°C 48.1°F8.9°C 99% 4.9 mph NW7.9 kmh NW 6.9 mph11.1 kmh 29.32 in992.9 mb 0.00 in0.0 mm 0.00 in/hr0.0 mm/hr 0.00 in0.0 mm
02:57 AM 48.4°F9.1°C 48.1°F8.9°C 99% 5.3 mph WNW8.5 kmh WNW 8.3 mph13.4 kmh 29.32 in992.9 mb 0.00 in0.0 mm 0.00 in/hr0.0 mm/hr 0.00 in0.0 mm
02:56 AM 48.4°F9.1°C 48.1°F8.9°C 99% 5.3 mph WNW8.5 kmh WNW 8.3 mph13.4 kmh 29.32 in992.9 mb 0.00 in0.0 mm 0.00 in/hr0.0 mm/hr 0.00 in0.0 mm
02:55 AM 48.4°F9.1°C 48.1°F8.9°C 99% 5.5 mph NW8.9 kmh NW 8.3 mph13.4 kmh 29.32 in992.9 mb 0.00 in0.0 mm 0.00 in/hr0.0 mm/hr 0.00 in0.0 mm
02:54 AM 48.4°F9.1°C 48.1°F8.9°C 99% 5.4 mph NW8.7 kmh NW 8.3 mph13.4 kmh 29.32 in992.9 mb 0.00 in0.0 mm 0.00 in/hr0.0 mm/hr 0.00 in0.0 mm
02:53 AM 48.4°F9.1°C 48.1°F8.9°C 99% 5.2 mph NW8.4 kmh NW 8.3 mph13.4 kmh 29.32 in992.9 mb 0.00 in0.0 mm 0.00 in/hr0.0 mm/hr 0.00 in0.0 mm
02:52 AM 48.4°F9.1°C 48.1°F8.9°C 99% 5.4 mph NW8.7 kmh NW 8.3 mph13.4 kmh 29.32 in992.9 mb 0.00 in0.0 mm 0.00 in/hr0.0 mm/hr 0.00 in0.0 mm
02:51 AM 48.4°F9.1°C 48.1°F8.9°C 99% 5.2 mph NW8.4 kmh NW 8.3 mph13.4 kmh 29.32 in992.9 mb 0.00 in0.0 mm 0.00 in/hr0.0 mm/hr 0.00 in0.0 mm
02:50 AM 48.4°F9.1°C 48.1°F8.9°C 99% 5.1 mph NW8.2 kmh NW 8.3 mph13.4 kmh 29.32 in992.9 mb 0.00 in0.0 mm 0.00 in/hr0.0 mm/hr 0.00 in0.0 mm
02:49 AM 48.4°F9.1°C 48.1°F8.9°C 99% 4.9 mph NW7.9 kmh NW 8.3 mph13.4 kmh 29.32 in992.9 mb 0.00 in0.0 mm 0.00 in/hr0.0 mm/hr 0.00 in0.0 mm
02:48 AM 48.4°F9.1°C 48.1°F8.9°C 99% 4.8 mph NW7.7 kmh NW 8.3 mph13.4 kmh 29.32 in992.9 mb 0.00 in0.0 mm 0.00 in/hr0.0 mm/hr 0.00 in0.0 mm
02:47 AM 48.4°F9.1°C 48.1°F8.9°C 99% 4.6 mph NNW7.4 kmh NNW 6.9 mph11.1 kmh 29.32 in992.9 mb 0.00 in0.0 mm 0.00 in/hr0.0 mm/hr 0.00 in0.0 mm
02:46 AM 48.2°F9.0°C 47.9°F8.8°C 99% 4.7 mph NW7.6 kmh NW 6.9 mph11.1 kmh 29.32 in992.9 mb 0.00 in0.0 mm 0.00 in/hr0.0 mm/hr 0.00 in0.0 mm
02:45 AM 48.4°F9.1°C 48.1°F8.9°C 99% 4.8 mph NNW7.7 kmh NNW 6.9 mph11.1 kmh 29.32 in992.9 mb 0.00 in0.0 mm 0.00 in/hr0.0 mm/hr 0.00 in0.0 mm
02:44 AM 48.4°F9.1°C 48.1°F8.9°C 99% 5.0 mph NW8.0 kmh NW 6.9 mph11.1 kmh 29.32 in992.9 mb 0.00 in0.0 mm 0.00 in/hr0.0 mm/hr 0.00 in0.0 mm
02:43 AM 48.4°F9.1°C 48.1°F8.9°C 99% 5.2 mph NW8.4 kmh NW 6.9 mph11.1 kmh 29.32 in992.9 mb 0.00 in0.0 mm 0.00 in/hr0.0 mm/hr 0.00 in0.0 mm
02:42 AM 48.4°F9.1°C 48.1°F8.9°C 99% 5.2 mph NW8.4 kmh NW 6.9 mph11.1 kmh 29.32 in992.9 mb 0.00 in0.0 mm 0.00 in/hr0.0 mm/hr 0.00 in0.0 mm
02:41 AM 48.4°F9.1°C 48.1°F8.9°C 99% 5.4 mph NW8.7 kmh NW 7.6 mph12.2 kmh 29.32 in992.9 mb 0.00 in0.0 mm 0.00 in/hr0.0 mm/hr 0.00 in0.0 mm
02:40 AM 48.4°F9.1°C 48.1°F8.9°C 99% 5.7 mph NW9.2 kmh NW 7.6 mph12.2 kmh 29.32 in992.9 mb 0.00 in0.0 mm 0.00 in/hr0.0 mm/hr 0.00 in0.0 mm
02:39 AM 48.4°F9.1°C 48.1°F8.9°C 99% 6.0 mph NW9.7 kmh NW 7.6 mph12.2 kmh 29.32 in992.9 mb 0.00 in0.0 mm 0.00 in/hr0.0 mm/hr 0.00 in0.0 mm
02:38 AM 48.4°F9.1°C 48.1°F8.9°C 99% 6.4 mph NW10.3 kmh NW 7.6 mph12.2 kmh 29.32 in992.9 mb 0.00 in0.0 mm 0.00 in/hr0.0 mm/hr 0.00 in0.0 mm
02:37 AM 48.4°F9.1°C 48.1°F8.9°C 99% 6.4 mph NW10.3 kmh NW 7.6 mph12.2 kmh 29.32 in992.9 mb 0.00 in0.0 mm 0.00 in/hr0.0 mm/hr 0.00 in0.0 mm
02:36 AM 48.4°F9.1°C 48.1°F8.9°C 99% 6.6 mph NW10.6 kmh NW 9.2 mph14.8 kmh 29.32 in992.9 mb 0.00 in0.0 mm 0.00 in/hr0.0 mm/hr 0.00 in0.0 mm
02:35 AM 48.4°F9.1°C 48.1°F8.9°C 99% 6.9 mph NW11.1 kmh NW 10.7 mph17.2 kmh 29.32 in992.9 mb 0.00 in0.0 mm 0.00 in/hr0.0 mm/hr 0.00 in0.0 mm
02:34 AM 48.4°F9.1°C 48.1°F8.9°C 99% 6.9 mph NW11.1 kmh NW 10.7 mph17.2 kmh 29.32 in992.9 mb 0.00 in0.0 mm 0.00 in/hr0.0 mm/hr 0.00 in0.0 mm
02:33 AM 48.4°F9.1°C 48.1°F8.9°C 99% 6.9 mph NW11.1 kmh NW 10.7 mph17.2 kmh 29.32 in992.9 mb 0.00 in0.0 mm 0.00 in/hr0.0 mm/hr 0.00 in0.0 mm
02:32 AM 48.4°F9.1°C 48.1°F8.9°C 99% 7.1 mph NW11.4 kmh NW 10.7 mph17.2 kmh 29.33 in993.2 mb 0.00 in0.0 mm 0.00 in/hr0.0 mm/hr 0.00 in0.0 mm
02:31 AM 48.4°F9.1°C 48.1°F8.9°C 99% 7.3 mph NW11.7 kmh NW 10.7 mph17.2 kmh 29.32 in992.9 mb 0.00 in0.0 mm 0.00 in/hr0.0 mm/hr 0.00 in0.0 mm
02:30 AM 48.4°F9.1°C 48.1°F8.9°C 99% 7.3 mph NW11.7 kmh NW 10.7 mph17.2 kmh 29.33 in993.2 mb 0.00 in0.0 mm 0.00 in/hr0.0 mm/hr 0.00 in0.0 mm
02:29 AM 48.4°F9.1°C 48.1°F8.9°C 99% 7.1 mph WNW11.4 kmh WNW 10.7 mph17.2 kmh 29.32 in992.9 mb 0.00 in0.0 mm 0.00 in/hr0.0 mm/hr 0.00 in0.0 mm
02:28 AM 48.4°F9.1°C 48.1°F8.9°C 99% 6.8 mph WNW10.9 kmh WNW 10.7 mph17.2 kmh 29.32 in992.9 mb 0.00 in0.0 mm 0.00 in/hr0.0 mm/hr 0.00 in0.0 mm
02:27 AM 48.4°F9.1°C 48.1°F8.9°C 99% 6.8 mph WNW10.9 kmh WNW 10.7 mph17.2 kmh 29.32 in992.9 mb 0.00 in0.0 mm 0.00 in/hr0.0 mm/hr 0.00 in0.0 mm
02:26 AM 48.2°F9.0°C 47.9°F8.8°C 99% 6.5 mph W10.5 kmh W 10.7 mph17.2 kmh 29.33 in993.2 mb 0.00 in0.0 mm 0.00 in/hr0.0 mm/hr 0.00 in0.0 mm
02:25 AM 48.2°F9.0°C 47.7°F8.7°C 98% 6.2 mph WNW10.0 kmh WNW 10.7 mph17.2 kmh 29.32 in992.9 mb 0.00 in0.0 mm 0.00 in/hr0.0 mm/hr 0.00 in0.0 mm
02:24 AM 48.2°F9.0°C 47.7°F8.7°C 98% 6.1 mph WNW9.8 kmh WNW 9.8 mph15.8 kmh 29.33 in993.2 mb 0.00 in0.0 mm 0.00 in/hr0.0 mm/hr 0.00 in0.0 mm
02:23 AM 48.2°F9.0°C 47.7°F8.7°C 98% 6.1 mph WNW9.8 kmh WNW 9.8 mph15.8 kmh 29.33 in993.2 mb 0.00 in0.0 mm 0.00 in/hr0.0 mm/hr 0.00 in0.0 mm
02:22 AM 48.2°F9.0°C 47.7°F8.7°C 98% 6.0 mph NW9.7 kmh NW 9.8 mph15.8 kmh 29.33 in993.2 mb 0.00 in0.0 mm 0.00 in/hr0.0 mm/hr 0.00 in0.0 mm
02:21 AM 48.2°F9.0°C 47.7°F8.7°C 98% 5.6 mph NW9.0 kmh NW 9.2 mph14.8 kmh 29.33 in993.2 mb 0.00 in0.0 mm 0.00 in/hr0.0 mm/hr 0.00 in0.0 mm
02:20 AM 48.2°F9.0°C 47.7°F8.7°C 98% 5.3 mph NW8.5 kmh NW 6.9 mph11.1 kmh 29.33 in993.2 mb 0.00 in0.0 mm 0.00 in/hr0.0 mm/hr 0.00 in0.0 mm
02:19 AM 48.2°F9.0°C 47.7°F8.7°C 98% 5.2 mph NW8.4 kmh NW 6.9 mph11.1 kmh 29.33 in993.2 mb 0.00 in0.0 mm 0.00 in/hr0.0 mm/hr 0.00 in0.0 mm
02:18 AM 48.2°F9.0°C 47.7°F8.7°C 98% 5.2 mph NNW8.4 kmh NNW 6.9 mph11.1 kmh 29.33 in993.2 mb 0.00 in0.0 mm 0.00 in/hr0.0 mm/hr 0.00 in0.0 mm
02:17 AM 48.2°F9.0°C 47.7°F8.7°C 98% 5.2 mph NNW8.4 kmh NNW 6.9 mph11.1 kmh 29.33 in993.2 mb 0.00 in0.0 mm 0.00 in/hr0.0 mm/hr 0.00 in0.0 mm
02:16 AM 48.2°F9.0°C 47.7°F8.7°C 98% 5.1 mph NNW8.2 kmh NNW 6.9 mph11.1 kmh 29.33 in993.2 mb 0.00 in0.0 mm 0.00 in/hr0.0 mm/hr 0.00 in0.0 mm
02:15 AM 48.4°F9.1°C 47.8°F8.8°C 98% 5.0 mph NNW8.0 kmh NNW 6.0 mph9.7 kmh 29.33 in993.2 mb 0.00 in0.0 mm 0.00 in/hr0.0 mm/hr 0.00 in0.0 mm
02:14 AM 48.4°F9.1°C 47.8°F8.8°C 98% 4.8 mph N7.7 kmh N 6.0 mph9.7 kmh 29.33 in993.2 mb 0.00 in0.0 mm 0.00 in/hr0.0 mm/hr 0.00 in0.0 mm
02:13 AM 48.4°F9.1°C 47.8°F8.8°C 98% 4.7 mph NNW7.6 kmh NNW 6.0 mph9.7 kmh 29.33 in993.2 mb 0.00 in0.0 mm 0.00 in/hr0.0 mm/hr 0.00 in0.0 mm
02:12 AM 48.4°F9.1°C 47.8°F8.8°C 98% 4.6 mph NNW7.4 kmh NNW 6.0 mph9.7 kmh 29.33 in993.2 mb 0.00 in0.0 mm 0.00 in/hr0.0 mm/hr 0.00 in0.0 mm
02:11 AM 48.4°F9.1°C 47.8°F8.8°C 98% 4.6 mph NNW7.4 kmh NNW 6.0 mph9.7 kmh 29.33 in993.2 mb 0.00 in0.0 mm 0.00 in/hr0.0 mm/hr 0.00 in0.0 mm
02:10 AM 48.4°F9.1°C 47.8°F8.8°C 98% 4.7 mph NNW7.6 kmh NNW 6.0 mph9.7 kmh 29.33 in993.2 mb 0.00 in0.0 mm 0.00 in/hr0.0 mm/hr 0.00 in0.0 mm
02:09 AM 48.4°F9.1°C 47.8°F8.8°C 98% 4.8 mph N7.7 kmh N 6.9 mph11.1 kmh 29.33 in993.2 mb 0.00 in0.0 mm 0.00 in/hr0.0 mm/hr 0.00 in0.0 mm
02:08 AM 48.4°F9.1°C 47.8°F8.8°C 98% 5.0 mph NNW8.0 kmh NNW 7.6 mph12.2 kmh 29.33 in993.2 mb 0.00 in0.0 mm 0.00 in/hr0.0 mm/hr 0.00 in0.0 mm
02:07 AM 48.4°F9.1°C 47.8°F8.8°C 98% 5.0 mph NNW8.0 kmh NNW 7.6 mph12.2 kmh 29.33 in993.2 mb 0.00 in0.0 mm 0.00 in/hr0.0 mm/hr 0.00 in0.0 mm
02:06 AM 48.4°F9.1°C 47.8°F8.8°C 98% 5.1 mph NNW8.2 kmh NNW 7.6 mph12.2 kmh 29.33 in993.2 mb 0.00 in0.0 mm 0.00 in/hr0.0 mm/hr 0.00 in0.0 mm
02:05 AM 48.6°F9.2°C 48.0°F8.9°C 98% 5.4 mph NW8.7 kmh NW 8.3 mph13.4 kmh 29.33 in993.2 mb 0.00 in0.0 mm 0.00 in/hr0.0 mm/hr 0.00 in0.0 mm
02:04 AM 48.6°F9.2°C 48.0°F8.9°C 98% 5.4 mph NW8.7 kmh NW 8.3 mph13.4 kmh 29.33 in993.2 mb 0.00 in0.0 mm 0.00 in/hr0.0 mm/hr 0.00 in0.0 mm
02:03 AM 48.6°F9.2°C 48.0°F8.9°C 98% 5.5 mph NW8.9 kmh NW 8.3 mph13.4 kmh 29.33 in993.2 mb 0.00 in0.0 mm 0.00 in/hr0.0 mm/hr 0.00 in0.0 mm
02:02 AM 48.6°F9.2°C 48.0°F8.9°C 98% 5.3 mph NW8.5 kmh NW 8.3 mph13.4 kmh 29.33 in993.2 mb 0.00 in0.0 mm 0.00 in/hr0.0 mm/hr 0.00 in0.0 mm
02:01 AM 48.6°F9.2°C 48.0°F8.9°C 98% 5.2 mph NW8.4 kmh NW 8.3 mph13.4 kmh 29.33 in993.2 mb 0.00 in0.0 mm 0.00 in/hr0.0 mm/hr 0.00 in0.0 mm
02:00 AM 48.6°F9.2°C 48.0°F8.9°C 98% 5.4 mph NW8.7 kmh NW 8.3 mph13.4 kmh 29.33 in993.2 mb 0.00 in0.0 mm 0.00 in/hr0.0 mm/hr 0.00 in0.0 mm
01:59 AM 48.6°F9.2°C 48.0°F8.9°C 98% 5.2 mph NW8.4 kmh NW 8.3 mph13.4 kmh 29.33 in993.2 mb 0.00 in0.0 mm 0.00 in/hr0.0 mm/hr 0.00 in0.0 mm
01:58 AM 48.6°F9.2°C 48.0°F8.9°C 98% 4.9 mph NW7.9 kmh NW 8.3 mph13.4 kmh 29.33 in993.2 mb 0.00 in0.0 mm 0.00 in/hr0.0 mm/hr 0.00 in0.0 mm
01:57 AM 48.6°F9.2°C 48.0°F8.9°C 98% 4.8 mph NW7.7 kmh NW 8.3 mph13.4 kmh 29.33 in993.2 mb 0.00 in0.0 mm 0.00 in/hr0.0 mm/hr 0.00 in0.0 mm
01:56 AM 48.6°F9.2°C 48.0°F8.9°C 98% 4.6 mph NW7.4 kmh NW 8.3 mph13.4 kmh 29.33 in993.2 mb 0.00 in0.0 mm 0.00 in/hr0.0 mm/hr 0.00 in0.0 mm
01:55 AM 48.6°F9.2°C 48.0°F8.9°C 98% 4.2 mph NW6.8 kmh NW 6.9 mph11.1 kmh 29.33 in993.2 mb 0.00 in0.0 mm 0.00 in/hr0.0 mm/hr 0.00 in0.0 mm
01:54 AM 48.6°F9.2°C 48.0°F8.9°C 98% 4.2 mph NW6.8 kmh NW 6.9 mph11.1 kmh 29.33 in993.2 mb 0.00 in0.0 mm 0.00 in/hr0.0 mm/hr 0.00 in0.0 mm
01:53 AM 48.6°F9.2°C 48.0°F8.9°C 98% 4.2 mph NW6.8 kmh NW 6.9 mph11.1 kmh 29.33 in993.2 mb 0.00 in0.0 mm 0.00 in/hr0.0 mm/hr 0.00 in0.0 mm
01:52 AM 48.6°F9.2°C 48.0°F8.9°C 98% 4.5 mph NW7.2 kmh NW 6.9 mph11.1 kmh 29.33 in993.2 mb 0.00 in0.0 mm 0.00 in/hr0.0 mm/hr 0.00 in0.0 mm
01:51 AM 48.6°F9.2°C 48.0°F8.9°C 98% 4.6 mph NW7.4 kmh NW 6.9 mph11.1 kmh 29.33 in993.2 mb 0.00 in0.0 mm 0.00 in/hr0.0 mm/hr 0.00 in0.0 mm
01:50 AM 48.7°F9.3°C 48.2°F9.0°C 98% 4.6 mph NW7.4 kmh NW 6.9 mph11.1 kmh 29.33 in993.2 mb 0.00 in0.0 mm 0.00 in/hr0.0 mm/hr 0.00 in0.0 mm
01:49 AM 48.7°F9.3°C 48.2°F9.0°C 98% 4.9 mph NW7.9 kmh NW 6.9 mph11.1 kmh 29.33 in993.2 mb 0.00 in0.0 mm 0.00 in/hr0.0 mm/hr 0.00 in0.0 mm
01:48 AM 48.7°F9.3°C 48.2°F9.0°C 98% 5.0 mph NW8.0 kmh NW 7.6 mph12.2 kmh 29.33 in993.2 mb 0.00 in0.0 mm 0.00 in/hr0.0 mm/hr 0.00 in0.0 mm
01:47 AM 48.7°F9.3°C 48.2°F9.0°C 98% 5.3 mph NW8.5 kmh NW 7.6 mph12.2 kmh 29.33 in993.2 mb 0.00 in0.0 mm 0.00 in/hr0.0 mm/hr 0.00 in0.0 mm
01:46 AM 48.7°F9.3°C 48.2°F9.0°C 98% 5.5 mph NW8.9 kmh NW 8.3 mph13.4 kmh 29.33 in993.2 mb 0.00 in0.0 mm 0.00 in/hr0.0 mm/hr 0.00 in0.0 mm
01:45 AM 48.7°F9.3°C 48.2°F9.0°C 98% 6.0 mph NW9.7 kmh NW 8.3 mph13.4 kmh 29.33 in993.2 mb 0.00 in0.0 mm 0.00 in/hr0.0 mm/hr 0.00 in0.0 mm
01:44 AM 48.7°F9.3°C 48.2°F9.0°C 98% 6.3 mph NW10.1 kmh NW 8.3 mph13.4 kmh 29.33 in993.2 mb 0.00 in0.0 mm 0.00 in/hr0.0 mm/hr 0.00 in0.0 mm
01:43 AM 48.6°F9.2°C 48.0°F8.9°C 98% 6.5 mph NW10.5 kmh NW 8.3 mph13.4 kmh 29.33 in993.2 mb 0.00 in0.0 mm 0.00 in/hr0.0 mm/hr 0.00 in0.0 mm
01:42 AM 48.6°F9.2°C 48.0°F8.9°C 98% 6.4 mph NW10.3 kmh NW 8.3 mph13.4 kmh 29.33 in993.2 mb 0.00 in0.0 mm 0.00 in/hr0.0 mm/hr 0.00 in0.0 mm
01:41 AM 48.6°F9.2°C 48.0°F8.9°C 98% 6.2 mph NW10.0 kmh NW 8.3 mph13.4 kmh 29.33 in993.2 mb 0.00 in0.0 mm 0.00 in/hr0.0 mm/hr 0.00 in0.0 mm
01:40 AM 48.6°F9.2°C 48.0°F8.9°C 98% 6.0 mph NW9.7 kmh NW 8.3 mph13.4 kmh 29.33 in993.2 mb 0.00 in0.0 mm 0.00 in/hr0.0 mm/hr 0.00 in0.0 mm
01:39 AM 48.6°F9.2°C 48.0°F8.9°C 98% 5.7 mph NW9.2 kmh NW 8.3 mph13.4 kmh 29.33 in993.2 mb 0.00 in0.0 mm 0.00 in/hr0.0 mm/hr 0.00 in0.0 mm
01:38 AM 48.6°F9.2°C 48.0°F8.9°C 98% 5.6 mph NW9.0 kmh NW 8.3 mph13.4 kmh 29.33 in993.2 mb 0.00 in0.0 mm 0.00 in/hr0.0 mm/hr 0.00 in0.0 mm
01:37 AM 48.6°F9.2°C 48.0°F8.9°C 98% 5.4 mph NW8.7 kmh NW 8.3 mph13.4 kmh 29.33 in993.2 mb 0.00 in0.0 mm 0.00 in/hr0.0 mm/hr 0.00 in0.0 mm
01:36 AM 48.6°F9.2°C 48.0°F8.9°C 98% 5.0 mph NW8.0 kmh NW 8.3 mph13.4 kmh 29.33 in993.2 mb 0.00 in0.0 mm 0.00 in/hr0.0 mm/hr 0.00 in0.0 mm
01:35 AM 48.6°F9.2°C 48.0°F8.9°C 98% 4.6 mph NW7.4 kmh NW 8.3 mph13.4 kmh 29.33 in993.2 mb 0.00 in0.0 mm 0.00 in/hr0.0 mm/hr 0.00 in0.0 mm
01:34 AM 48.6°F9.2°C 47.8°F8.8°C 97% 4.3 mph NW6.9 kmh NW 8.3 mph13.4 kmh 29.33 in993.2 mb 0.00 in0.0 mm 0.00 in/hr0.0 mm/hr 0.00 in0.0 mm
01:33 AM 48.6°F9.2°C 47.8°F8.8°C 97% 3.9 mph NW6.3 kmh NW 6.9 mph11.1 kmh 29.33 in993.2 mb 0.00 in0.0 mm 0.00 in/hr0.0 mm/hr 0.00 in0.0 mm
01:32 AM 48.6°F9.2°C 47.8°F8.8°C 97% 3.7 mph NW6.0 kmh NW 5.4 mph8.7 kmh 29.33 in993.2 mb 0.00 in0.0 mm 0.00 in/hr0.0 mm/hr 0.00 in0.0 mm
01:31 AM 48.6°F9.2°C 47.8°F8.8°C 97% 3.6 mph NW5.8 kmh NW 5.4 mph8.7 kmh 29.33 in993.2 mb 0.00 in0.0 mm 0.00 in/hr0.0 mm/hr 0.00 in0.0 mm
01:30 AM 48.6°F9.2°C 47.8°F8.8°C 97% 3.5 mph NW5.6 kmh NW 5.4 mph8.7 kmh 29.33 in993.2 mb 0.00 in0.0 mm 0.00 in/hr0.0 mm/hr 0.00 in0.0 mm
01:29 AM 48.6°F9.2°C 47.8°F8.8°C 97% 3.5 mph NW5.6 kmh NW 5.4 mph8.7 kmh 29.33 in993.2 mb 0.00 in0.0 mm 0.00 in/hr0.0 mm/hr 0.00 in0.0 mm
01:28 AM 48.6°F9.2°C 47.8°F8.8°C 97% 3.3 mph NW5.3 kmh NW 5.4 mph8.7 kmh 29.33 in993.2 mb 0.00 in0.0 mm 0.00 in/hr0.0 mm/hr 0.00 in0.0 mm
01:27 AM 48.6°F9.2°C 47.8°F8.8°C 97% 3.3 mph NW5.3 kmh NW 5.4 mph8.7 kmh 29.33 in993.2 mb 0.00 in0.0 mm 0.00 in/hr0.0 mm/hr 0.00 in0.0 mm
01:26 AM 48.6°F9.2°C 47.8°F8.8°C 97% 3.5 mph NW5.6 kmh NW 5.4 mph8.7 kmh 29.33 in993.2 mb 0.00 in0.0 mm 0.00 in/hr0.0 mm/hr 0.00 in0.0 mm
01:25 AM 48.6°F9.2°C 47.8°F8.8°C 97% 3.6 mph NW5.8 kmh NW 6.0 mph9.7 kmh 29.33 in993.2 mb 0.00 in0.0 mm 0.00 in/hr0.0 mm/hr 0.00 in0.0 mm
01:24 AM 48.6°F9.2°C 47.8°F8.8°C 97% 3.6 mph NW5.8 kmh NW 6.0 mph9.7 kmh 29.33 in993.2 mb 0.00 in0.0 mm 0.00 in/hr0.0 mm/hr 0.00 in0.0 mm
01:23 AM 48.6°F9.2°C 47.8°F8.8°C 97% 3.6 mph NW5.8 kmh NW 6.0 mph9.7 kmh 29.33 in993.2 mb 0.00 in0.0 mm 0.00 in/hr0.0 mm/hr 0.00 in0.0 mm
01:22 AM 48.6°F9.2°C 47.8°F8.8°C 97% 3.9 mph WNW6.3 kmh WNW 6.0 mph9.7 kmh 29.33 in993.2 mb 0.00 in0.0 mm 0.00 in/hr0.0 mm/hr 0.00 in0.0 mm
01:21 AM 48.6°F9.2°C 47.8°F8.8°C 97% 4.1 mph WNW6.6 kmh WNW 6.0 mph9.7 kmh 29.33 in993.2 mb 0.00 in0.0 mm 0.00 in/hr0.0 mm/hr 0.00 in0.0 mm
01:20 AM 48.6°F9.2°C 47.8°F8.8°C 97% 4.3 mph NW6.9 kmh NW 6.0 mph9.7 kmh 29.33 in993.2 mb 0.00 in0.0 mm 0.00 in/hr0.0 mm/hr 0.00 in0.0 mm
01:19 AM 48.6°F9.2°C 47.8°F8.8°C 97% 4.4 mph NW7.1 kmh NW 6.0 mph9.7 kmh 29.33 in993.2 mb 0.00 in0.0 mm 0.00 in/hr0.0 mm/hr 0.00 in0.0 mm
01:18 AM 48.6°F9.2°C 47.8°F8.8°C 97% 4.7 mph NW7.6 kmh NW 6.0 mph9.7 kmh 29.33 in993.2 mb 0.00 in0.0 mm 0.00 in/hr0.0 mm/hr 0.00 in0.0 mm
01:17 AM 48.6°F9.2°C 47.8°F8.8°C 97% 4.9 mph NW7.9 kmh NW 6.0 mph9.7 kmh 29.33 in993.2 mb 0.00 in0.0 mm 0.00 in/hr0.0 mm/hr 0.00 in0.0 mm
01:16 AM 48.6°F9.2°C 47.8°F8.8°C 97% 5.0 mph NW8.0 kmh NW 6.9 mph11.1 kmh 29.34 in993.6 mb 0.00 in0.0 mm 0.00 in/hr0.0 mm/hr 0.00 in0.0 mm
01:15 AM 48.6°F9.2°C 47.8°F8.8°C 97% 5.2 mph NW8.4 kmh NW 6.9 mph11.1 kmh 29.34 in993.6 mb 0.00 in0.0 mm 0.00 in/hr0.0 mm/hr 0.00 in0.0 mm
01:14 AM 48.6°F9.2°C 47.8°F8.8°C 97% 5.3 mph NW8.5 kmh NW 6.9 mph11.1 kmh 29.34 in993.6 mb 0.00 in0.0 mm 0.00 in/hr0.0 mm/hr 0.00 in0.0 mm
01:13 AM 48.6°F9.2°C 47.8°F8.8°C 97% 5.7 mph NW9.2 kmh NW 8.3 mph13.4 kmh 29.34 in993.6 mb 0.00 in0.0 mm 0.00 in/hr0.0 mm/hr 0.00 in0.0 mm
01:12 AM 48.6°F9.2°C 47.8°F8.8°C 97% 5.9 mph NW9.5 kmh NW 8.3 mph13.4 kmh 29.34 in993.6 mb 0.00 in0.0 mm 0.00 in/hr0.0 mm/hr 0.00 in0.0 mm
01:11 AM 48.6°F9.2°C 47.8°F8.8°C 97% 6.1 mph NW9.8 kmh NW 8.3 mph13.4 kmh 29.34 in993.6 mb 0.00 in0.0 mm 0.00 in/hr0.0 mm/hr 0.00 in0.0 mm
01:10 AM 48.6°F9.2°C 47.8°F8.8°C 97% 6.4 mph NW10.3 kmh NW 8.3 mph13.4 kmh 29.34 in993.6 mb 0.00 in0.0 mm 0.00 in/hr0.0 mm/hr 0.00 in0.0 mm
01:09 AM 48.6°F9.2°C 47.8°F8.8°C 97% 6.3 mph NW10.1 kmh NW 8.3 mph13.4 kmh 29.34 in993.6 mb 0.00 in0.0 mm 0.00 in/hr0.0 mm/hr 0.00 in0.0 mm
01:08 AM 48.6°F9.2°C 47.8°F8.8°C 97% 6.2 mph NW10.0 kmh NW 8.3 mph13.4 kmh 29.34 in993.6 mb 0.00 in0.0 mm 0.00 in/hr0.0 mm/hr 0.00 in0.0 mm
01:07 AM 48.6°F9.2°C 47.8°F8.8°C 97% 6.1 mph NW9.8 kmh NW 8.3 mph13.4 kmh 29.34 in993.6 mb 0.00 in0.0 mm 0.00 in/hr0.0 mm/hr 0.00 in0.0 mm
01:06 AM 48.6°F9.2°C 47.8°F8.8°C 97% 6.0 mph NW9.7 kmh NW 8.3 mph13.4 kmh 29.33 in993.2 mb 0.00 in0.0 mm 0.00 in/hr0.0 mm/hr 0.00 in0.0 mm
01:05 AM 48.6°F9.2°C 47.8°F8.8°C 97% 6.0 mph NW9.7 kmh NW 8.3 mph13.4 kmh 29.34 in993.6 mb 0.00 in0.0 mm 0.00 in/hr0.0 mm/hr 0.00 in0.0 mm
01:04 AM 48.6°F9.2°C 47.8°F8.8°C 97% 5.8 mph NW9.3 kmh NW 8.3 mph13.4 kmh 29.33 in993.2 mb 0.00 in0.0 mm 0.00 in/hr0.0 mm/hr 0.00 in0.0 mm
01:03 AM 48.6°F9.2°C 47.8°F8.8°C 97% 5.4 mph NW8.7 kmh NW 8.3 mph13.4 kmh 29.34 in993.6 mb 0.00 in0.0 mm 0.00 in/hr0.0 mm/hr 0.00 in0.0 mm
01:02 AM 48.4°F9.1°C 47.6°F8.7°C 97% 5.1 mph NW8.2 kmh NW 8.3 mph13.4 kmh 29.33 in993.2 mb 0.00 in0.0 mm 0.00 in/hr0.0 mm/hr 0.00 in0.0 mm
01:01 AM 48.4°F9.1°C 47.6°F8.7°C 97% 4.9 mph NW7.9 kmh NW 8.3 mph13.4 kmh 29.34 in993.6 mb 0.00 in0.0 mm 0.00 in/hr0.0 mm/hr 0.00 in0.0 mm
01:00 AM 48.4°F9.1°C 47.3°F8.5°C 96% 4.3 mph NW6.9 kmh NW 8.3 mph13.4 kmh 29.34 in993.6 mb 0.00 in0.0 mm 0.00 in/hr0.0 mm/hr 0.00 in0.0 mm
12:59 AM 48.4°F9.1°C 47.3°F8.5°C 96% 4.0 mph NW6.4 kmh NW 6.9 mph11.1 kmh 29.34 in993.6 mb 0.00 in0.0 mm 0.00 in/hr0.0 mm/hr 0.00 in0.0 mm
12:58 AM 48.4°F9.1°C 47.3°F8.5°C 96% 3.9 mph WNW6.3 kmh WNW 6.9 mph11.1 kmh 29.34 in993.6 mb 0.00 in0.0 mm 0.00 in/hr0.0 mm/hr 0.00 in0.0 mm
12:57 AM 48.4°F9.1°C 47.3°F8.5°C 96% 4.0 mph WNW6.4 kmh WNW 6.9 mph11.1 kmh 29.34 in993.6 mb 0.00 in0.0 mm 0.00 in/hr0.0 mm/hr 0.00 in0.0 mm
12:56 AM 48.4°F9.1°C 47.3°F8.5°C 96% 3.9 mph WNW6.3 kmh WNW 6.9 mph11.1 kmh 29.34 in993.6 mb 0.00 in0.0 mm 0.00 in/hr0.0 mm/hr 0.00 in0.0 mm
12:55 AM 48.2°F9.0°C 47.1°F8.4°C 96% 3.5 mph WNW5.6 kmh WNW 5.4 mph8.7 kmh 29.34 in993.6 mb 0.00 in0.0 mm 0.00 in/hr0.0 mm/hr 0.00 in0.0 mm
12:54 AM 48.2°F9.0°C 47.1°F8.4°C 96% 3.5 mph NW5.6 kmh NW 5.4 mph8.7 kmh 29.34 in993.6 mb 0.00 in0.0 mm 0.00 in/hr0.0 mm/hr 0.00 in0.0 mm
12:53 AM 48.2°F9.0°C 46.8°F8.2°C 95% 3.4 mph NW5.5 kmh NW 5.4 mph8.7 kmh 29.34 in993.6 mb 0.00 in0.0 mm 0.00 in/hr0.0 mm/hr 0.00 in0.0 mm
12:52 AM 48.2°F9.0°C 46.8°F8.2°C 95% 3.3 mph NW5.3 kmh NW 5.4 mph8.7 kmh 29.34 in993.6 mb 0.00 in0.0 mm 0.00 in/hr0.0 mm/hr 0.00 in0.0 mm
12:51 AM 48.2°F9.0°C 46.8°F8.2°C 95% 3.3 mph NW5.3 kmh NW 5.4 mph8.7 kmh 29.34 in993.6 mb 0.00 in0.0 mm 0.00 in/hr0.0 mm/hr 0.00 in0.0 mm
12:50 AM 48.2°F9.0°C 46.8°F8.2°C 95% 3.4 mph NW5.5 kmh NW 5.4 mph8.7 kmh 29.34 in993.6 mb 0.00 in0.0 mm 0.00 in/hr0.0 mm/hr 0.00 in0.0 mm
12:49 AM 48.2°F9.0°C 46.8°F8.2°C 95% 3.5 mph NW5.6 kmh NW 5.4 mph8.7 kmh 29.34 in993.6 mb 0.00 in0.0 mm 0.00 in/hr0.0 mm/hr 0.00 in0.0 mm
12:48 AM 48.2°F9.0°C 46.8°F8.2°C 95% 3.5 mph NNW5.6 kmh NNW 5.4 mph8.7 kmh 29.34 in993.6 mb 0.00 in0.0 mm 0.00 in/hr0.0 mm/hr 0.00 in0.0 mm
12:47 AM 48.2°F9.0°C 46.8°F8.2°C 95% 3.3 mph NNW5.3 kmh NNW 4.5 mph7.2 kmh 29.34 in993.6 mb 0.00 in0.0 mm 0.00 in/hr0.0 mm/hr 0.00 in0.0 mm
12:46 AM 48.2°F9.0°C 46.8°F8.2°C 95% 3.4 mph NNW5.5 kmh NNW 4.5 mph7.2 kmh 29.34 in993.6 mb 0.00 in0.0 mm 0.00 in/hr0.0 mm/hr 0.00 in0.0 mm
12:45 AM 48.2°F9.0°C 46.8°F8.2°C 95% 3.3 mph NNW5.3 kmh NNW 4.5 mph7.2 kmh 29.34 in993.6 mb 0.00 in0.0 mm 0.00 in/hr0.0 mm/hr 0.00 in0.0 mm
12:44 AM 48.2°F9.0°C 46.8°F8.2°C 95% 3.2 mph NNW5.1 kmh NNW 4.5 mph7.2 kmh 29.34 in993.6 mb 0.00 in0.0 mm 0.00 in/hr0.0 mm/hr 0.00 in0.0 mm
12:43 AM 48.2°F9.0°C 46.8°F8.2°C 95% 3.2 mph NNW5.1 kmh NNW 4.5 mph7.2 kmh 29.34 in993.6 mb 0.00 in0.0 mm 0.00 in/hr0.0 mm/hr 0.00 in0.0 mm
12:42 AM 48.2°F9.0°C 46.8°F8.2°C 95% 3.1 mph NNW5.0 kmh NNW 4.5 mph7.2 kmh 29.34 in993.6 mb 0.00 in0.0 mm 0.00 in/hr0.0 mm/hr 0.00 in0.0 mm
12:41 AM 48.2°F9.0°C 46.6°F8.1°C 94% 3.0 mph N4.8 kmh N 4.5 mph7.2 kmh 29.34 in993.6 mb 0.00 in0.0 mm 0.00 in/hr0.0 mm/hr 0.00 in0.0 mm
12:40 AM 48.2°F9.0°C 46.6°F8.1°C 94% 2.8 mph N4.5 kmh N 3.8 mph6.1 kmh 29.34 in993.6 mb 0.00 in0.0 mm 0.00 in/hr0.0 mm/hr 0.00 in0.0 mm
12:39 AM 48.4°F9.1°C 46.7°F8.2°C 94% 2.7 mph N4.3 kmh N 3.8 mph6.1 kmh 29.34 in993.6 mb 0.00 in0.0 mm 0.00 in/hr0.0 mm/hr 0.00 in0.0 mm
12:38 AM 48.4°F9.1°C 46.7°F8.2°C 94% 2.8 mph N4.5 kmh N 3.8 mph6.1 kmh 29.34 in993.6 mb 0.00 in0.0 mm 0.00 in/hr0.0 mm/hr 0.00 in0.0 mm
12:37 AM 48.4°F9.1°C 46.7°F8.2°C 94% 2.6 mph N4.2 kmh N 3.8 mph6.1 kmh 29.34 in993.6 mb 0.00 in0.0 mm 0.00 in/hr0.0 mm/hr 0.00 in0.0 mm
12:36 AM 48.4°F9.1°C 46.7°F8.2°C 94% 2.5 mph N4.0 kmh N 3.8 mph6.1 kmh 29.34 in993.6 mb 0.00 in0.0 mm 0.00 in/hr0.0 mm/hr 0.00 in0.0 mm
12:35 AM 48.4°F9.1°C 46.7°F8.2°C 94% 2.5 mph N4.0 kmh N 3.8 mph6.1 kmh 29.34 in993.6 mb 0.00 in0.0 mm 0.00 in/hr0.0 mm/hr 0.00 in0.0 mm
12:34 AM 48.4°F9.1°C 46.7°F8.2°C 94% 2.4 mph N3.9 kmh N 3.8 mph6.1 kmh 29.34 in993.6 mb 0.00 in0.0 mm 0.00 in/hr0.0 mm/hr 0.00 in0.0 mm
12:33 AM 48.4°F9.1°C 46.7°F8.2°C 94% 2.5 mph NNW4.0 kmh NNW 3.8 mph6.1 kmh 29.34 in993.6 mb 0.00 in0.0 mm 0.00 in/hr0.0 mm/hr 0.00 in0.0 mm
12:32 AM 48.4°F9.1°C 46.7°F8.2°C 94% 2.5 mph NNW4.0 kmh NNW 3.8 mph6.1 kmh 29.34 in993.6 mb 0.00 in0.0 mm 0.00 in/hr0.0 mm/hr 0.00 in0.0 mm
12:31 AM 48.6°F9.2°C 46.9°F8.3°C 94% 2.5 mph NNW4.0 kmh NNW 3.8 mph6.1 kmh 29.34 in993.6 mb 0.00 in0.0 mm 0.00 in/hr0.0 mm/hr 0.00 in0.0 mm
12:30 AM 48.6°F9.2°C 46.6°F8.1°C 93% 2.7 mph NNW4.3 kmh NNW 3.8 mph6.1 kmh 29.34 in993.6 mb 0.00 in0.0 mm 0.00 in/hr0.0 mm/hr 0.00 in0.0 mm
12:29 AM 48.6°F9.2°C 46.6°F8.1°C 93% 2.7 mph NW4.3 kmh NW 3.8 mph6.1 kmh 29.34 in993.6 mb 0.00 in0.0 mm 0.00 in/hr0.0 mm/hr 0.00 in0.0 mm
12:28 AM 48.6°F9.2°C 46.6°F8.1°C 93% 2.6 mph NW4.2 kmh NW 3.8 mph6.1 kmh 29.34 in993.6 mb 0.00 in0.0 mm 0.00 in/hr0.0 mm/hr 0.00 in0.0 mm
12:27 AM 48.6°F9.2°C 46.6°F8.1°C 93% 2.6 mph NW4.2 kmh NW 3.8 mph6.1 kmh 29.34 in993.6 mb 0.00 in0.0 mm 0.00 in/hr0.0 mm/hr 0.00 in0.0 mm
12:26 AM 48.6°F9.2°C 46.6°F8.1°C 93% 2.7 mph NW4.3 kmh NW 3.8 mph6.1 kmh 29.34 in993.6 mb 0.00 in0.0 mm 0.00 in/hr0.0 mm/hr 0.00 in0.0 mm
12:25 AM 48.6°F9.2°C 46.6°F8.1°C 93% 2.7 mph NW4.3 kmh NW 3.8 mph6.1 kmh 29.34 in993.6 mb 0.00 in0.0 mm 0.00 in/hr0.0 mm/hr 0.00 in0.0 mm
12:24 AM 48.6°F9.2°C 46.6°F8.1°C 93% 2.6 mph NW4.2 kmh NW 3.8 mph6.1 kmh 29.34 in993.6 mb 0.00 in0.0 mm 0.00 in/hr0.0 mm/hr 0.00 in0.0 mm
12:23 AM 48.7°F9.3°C 46.8°F8.2°C 93% 2.5 mph NW4.0 kmh NW 3.8 mph6.1 kmh 29.34 in993.6 mb 0.00 in0.0 mm 0.00 in/hr0.0 mm/hr 0.00 in0.0 mm
12:22 AM 48.7°F9.3°C 46.8°F8.2°C 93% 2.5 mph NNW4.0 kmh NNW 3.8 mph6.1 kmh 29.34 in993.6 mb 0.00 in0.0 mm 0.00 in/hr0.0 mm/hr 0.00 in0.0 mm
12:21 AM 48.7°F9.3°C 46.8°F8.2°C 93% 2.3 mph NNW3.7 kmh NNW 3.8 mph6.1 kmh 29.34 in993.6 mb 0.00 in0.0 mm 0.00 in/hr0.0 mm/hr 0.00 in0.0 mm
12:20 AM 48.7°F9.3°C 46.8°F8.2°C 93% 2.2 mph NNW3.5 kmh NNW 3.8 mph6.1 kmh 29.34 in993.6 mb 0.00 in0.0 mm 0.00 in/hr0.0 mm/hr 0.00 in0.0 mm
12:19 AM 48.7°F9.3°C 46.8°F8.2°C 93% 2.2 mph NNW3.5 kmh NNW 3.8 mph6.1 kmh 29.34 in993.6 mb 0.00 in0.0 mm 0.00 in/hr0.0 mm/hr 0.00 in0.0 mm
12:18 AM 48.7°F9.3°C 46.5°F8.1°C 92% 2.1 mph N3.4 kmh N 3.8 mph6.1 kmh 29.34 in993.6 mb 0.00 in0.0 mm 0.00 in/hr0.0 mm/hr 0.00 in0.0 mm
12:17 AM 48.9°F9.4°C 47.0°F8.3°C 93% 2.1 mph N3.4 kmh N 3.8 mph6.1 kmh 29.34 in993.6 mb 0.00 in0.0 mm 0.00 in/hr0.0 mm/hr 0.00 in0.0 mm
12:16 AM 48.9°F9.4°C 46.7°F8.2°C 92% 2.1 mph N3.4 kmh N 3.8 mph6.1 kmh 29.34 in993.6 mb 0.00 in0.0 mm 0.00 in/hr0.0 mm/hr 0.00 in0.0 mm
12:15 AM 48.9°F9.4°C 46.7°F8.2°C 92% 2.0 mph N3.2 kmh N 2.2 mph3.5 kmh 29.34 in993.6 mb 0.00 in0.0 mm 0.00 in/hr0.0 mm/hr 0.00 in0.0 mm
12:14 AM 49.1°F9.5°C 46.9°F8.3°C 92% 2.0 mph N3.2 kmh N 3.1 mph5.0 kmh 29.34 in993.6 mb 0.00 in0.0 mm 0.00 in/hr0.0 mm/hr 0.00 in0.0 mm
12:13 AM 49.1°F9.5°C 46.9°F8.3°C 92% 2.1 mph N3.4 kmh N 3.1 mph5.0 kmh 29.34 in993.6 mb 0.00 in0.0 mm 0.00 in/hr0.0 mm/hr 0.00 in0.0 mm
12:12 AM 49.1°F9.5°C 46.9°F8.3°C 92% 2.2 mph N3.5 kmh N 3.1 mph5.0 kmh 29.34 in993.6 mb 0.00 in0.0 mm 0.00 in/hr0.0 mm/hr 0.00 in0.0 mm
12:11 AM 49.1°F9.5°C 46.9°F8.3°C 92% 2.3 mph N3.7 kmh N 3.1 mph5.0 kmh 29.34 in993.6 mb 0.00 in0.0 mm 0.00 in/hr0.0 mm/hr 0.00 in0.0 mm
12:10 AM 49.3°F9.6°C 47.1°F8.4°C 92% 2.3 mph N3.7 kmh N 3.1 mph5.0 kmh 29.34 in993.6 mb 0.00 in0.0 mm 0.00 in/hr0.0 mm/hr 0.00 in0.0 mm
12:09 AM 49.3°F9.6°C 47.1°F8.4°C 92% 2.3 mph N3.7 kmh N 3.1 mph5.0 kmh 29.34 in993.6 mb 0.00 in0.0 mm 0.00 in/hr0.0 mm/hr 0.00 in0.0 mm
12:08 AM 49.3°F9.6°C 47.1°F8.4°C 92% 2.4 mph N3.9 kmh N 3.1 mph5.0 kmh 29.34 in993.6 mb 0.00 in0.0 mm 0.00 in/hr0.0 mm/hr 0.00 in0.0 mm
12:07 AM 49.3°F9.6°C 47.1°F8.4°C 92% 2.4 mph NNW3.9 kmh NNW 3.1 mph5.0 kmh 29.34 in993.6 mb 0.00 in0.0 mm 0.00 in/hr0.0 mm/hr 0.00 in0.0 mm
12:06 AM 49.3°F9.6°C 47.1°F8.4°C 92% 2.5 mph NNW4.0 kmh NNW 3.1 mph5.0 kmh 29.34 in993.6 mb 0.00 in0.0 mm 0.00 in/hr0.0 mm/hr 0.00 in0.0 mm
12:05 AM 49.3°F9.6°C 47.1°F8.4°C 92% 2.6 mph NW4.2 kmh NW 3.1 mph5.0 kmh 29.34 in993.6 mb 0.00 in0.0 mm 0.00 in/hr0.0 mm/hr 0.00 in0.0 mm
12:04 AM 49.5°F9.7°C 47.2°F8.4°C 92% 2.5 mph NW4.0 kmh NW 3.1 mph5.0 kmh 29.34 in993.6 mb 0.00 in0.0 mm 0.00 in/hr0.0 mm/hr 0.00 in0.0 mm
12:03 AM 49.5°F9.7°C 47.2°F8.4°C 92% 2.5 mph NW4.0 kmh NW 3.1 mph5.0 kmh 29.34 in993.6 mb 0.00 in0.0 mm 0.00 in/hr0.0 mm/hr 0.00 in0.0 mm
12:02 AM 49.5°F9.7°C 47.2°F8.4°C 92% 2.5 mph NW4.0 kmh NW 3.1 mph5.0 kmh 29.34 in993.6 mb 0.00 in0.0 mm 0.00 in/hr0.0 mm/hr 0.00 in0.0 mm
12:01 AM 49.5°F9.7°C 47.2°F8.4°C 92% 2.3 mph NW3.7 kmh NW 3.1 mph5.0 kmh 29.34 in993.6 mb 0.00 in0.0 mm 0.00 in/hr0.0 mm/hr 0.00 in0.0 mm
12:00 AM 49.5°F9.7°C 47.2°F8.4°C 92% 2.4 mph NW3.9 kmh NW 3.1 mph5.0 kmh 29.34 in993.6 mb 0.00 in0.0 mm 0.00 in/hr0.0 mm/hr 0.00 in0.0 mm